﻿<?xml version="1.0" encoding="UTF-8" standalone="no" ?>
<gpx xmlns="http://www.topografix.com/GPX/1/1" creator="CompeGPS" version="1.1" xmlns:xsi="http://www.w3.org/2001/XMLSchema-instance" xsi:schemaLocation="http://www.topografix.com/GPX/1/1 http://www.topografix.com/GPX/1/1/gpx.xsd http://www.garmin.com/xmlschemas/GpxExtensions/v3 http://www.garmin.com/xmlschemas/GpxExtensionsv3.xsd http://www.garmin.com/xmlschemas/TrackPointExtension/v1 http://www.garmin.com/xmlschemas/TrackPointExtensionv1.xsd" xmlns:gpxtpx="http://www.garmin.com/xmlschemas/TrackPointExtension/v1">
  <metadata>
    <link href="http://www.compegps.com">
      <text>CompeGPS TEAM, SL</text>
    </link>
    <time>2018-10-21T20:59:38Z</time>
    <bounds maxlat="42.668242" maxlon="1.898270" minlat="42.638627" minlon="1.871964"/>
  </metadata>
  <trk>
    <name>pic_de_l_homme</name>
    <userMyTwoNav></userMyTwoNav>
    <serialNumber></serialNumber>
    <trkseg>
      <trkpt lat="42.667986" lon="1.872100">
        <ele>1410.9</ele>
        <time>2018-10-21T07:49:30Z</time>
      </trkpt>
      <trkpt lat="42.667960" lon="1.872118">
        <ele>1410.9</ele>
        <time>2018-10-21T07:49:33Z</time>
      </trkpt>
      <trkpt lat="42.667889" lon="1.872339">
        <ele>1410.1</ele>
        <time>2018-10-21T07:49:47Z</time>
      </trkpt>
      <trkpt lat="42.667918" lon="1.872445">
        <ele>1411.3</ele>
        <time>2018-10-21T07:50:01Z</time>
      </trkpt>
      <trkpt lat="42.667921" lon="1.872569">
        <ele>1412.7</ele>
        <time>2018-10-21T07:50:10Z</time>
      </trkpt>
      <trkpt lat="42.667941" lon="1.872676">
        <ele>1413.0</ele>
        <time>2018-10-21T07:50:18Z</time>
      </trkpt>
      <trkpt lat="42.667966" lon="1.872801">
        <ele>1413.6</ele>
        <time>2018-10-21T07:50:27Z</time>
      </trkpt>
      <trkpt lat="42.667994" lon="1.872912">
        <ele>1414.8</ele>
        <time>2018-10-21T07:50:39Z</time>
      </trkpt>
      <trkpt lat="42.667971" lon="1.873060">
        <ele>1415.7</ele>
        <time>2018-10-21T07:50:53Z</time>
      </trkpt>
      <trkpt lat="42.667922" lon="1.873161">
        <ele>1416.5</ele>
        <time>2018-10-21T07:51:03Z</time>
      </trkpt>
      <trkpt lat="42.667835" lon="1.873300">
        <ele>1417.9</ele>
        <time>2018-10-21T07:51:15Z</time>
      </trkpt>
      <trkpt lat="42.667783" lon="1.873423">
        <ele>1419.1</ele>
        <time>2018-10-21T07:51:24Z</time>
      </trkpt>
      <trkpt lat="42.667762" lon="1.873556">
        <ele>1420.7</ele>
        <time>2018-10-21T07:51:34Z</time>
      </trkpt>
      <trkpt lat="42.667715" lon="1.873686">
        <ele>1422.0</ele>
        <time>2018-10-21T07:51:44Z</time>
      </trkpt>
      <trkpt lat="42.667642" lon="1.873801">
        <ele>1423.4</ele>
        <time>2018-10-21T07:51:54Z</time>
      </trkpt>
      <trkpt lat="42.667587" lon="1.873939">
        <ele>1425.0</ele>
        <time>2018-10-21T07:52:06Z</time>
      </trkpt>
      <trkpt lat="42.667515" lon="1.874033">
        <ele>1426.4</ele>
        <time>2018-10-21T07:52:17Z</time>
      </trkpt>
      <trkpt lat="42.667417" lon="1.874095">
        <ele>1428.3</ele>
        <time>2018-10-21T07:52:30Z</time>
      </trkpt>
      <trkpt lat="42.667303" lon="1.874168">
        <ele>1430.2</ele>
        <time>2018-10-21T07:52:43Z</time>
      </trkpt>
      <trkpt lat="42.667193" lon="1.874245">
        <ele>1432.1</ele>
        <time>2018-10-21T07:52:56Z</time>
      </trkpt>
      <trkpt lat="42.667080" lon="1.874315">
        <ele>1434.1</ele>
        <time>2018-10-21T07:53:09Z</time>
      </trkpt>
      <trkpt lat="42.666979" lon="1.874329">
        <ele>1436.1</ele>
        <time>2018-10-21T07:53:22Z</time>
      </trkpt>
      <trkpt lat="42.666872" lon="1.874334">
        <ele>1438.4</ele>
        <time>2018-10-21T07:53:36Z</time>
      </trkpt>
      <trkpt lat="42.666754" lon="1.874349">
        <ele>1440.3</ele>
        <time>2018-10-21T07:53:47Z</time>
      </trkpt>
      <trkpt lat="42.666668" lon="1.874385">
        <ele>1441.5</ele>
        <time>2018-10-21T07:53:56Z</time>
      </trkpt>
      <trkpt lat="42.666581" lon="1.874429">
        <ele>1443.2</ele>
        <time>2018-10-21T07:54:06Z</time>
      </trkpt>
      <trkpt lat="42.666479" lon="1.874481">
        <ele>1445.0</ele>
        <time>2018-10-21T07:54:17Z</time>
      </trkpt>
      <trkpt lat="42.666396" lon="1.874567">
        <ele>1446.5</ele>
        <time>2018-10-21T07:54:26Z</time>
      </trkpt>
      <trkpt lat="42.666306" lon="1.874599">
        <ele>1447.9</ele>
        <time>2018-10-21T07:54:35Z</time>
      </trkpt>
      <trkpt lat="42.666200" lon="1.874602">
        <ele>1448.7</ele>
        <time>2018-10-21T07:54:43Z</time>
      </trkpt>
      <trkpt lat="42.666099" lon="1.874564">
        <ele>1449.3</ele>
        <time>2018-10-21T07:54:51Z</time>
      </trkpt>
      <trkpt lat="42.666000" lon="1.874554">
        <ele>1450.1</ele>
        <time>2018-10-21T07:55:01Z</time>
      </trkpt>
      <trkpt lat="42.665906" lon="1.874543">
        <ele>1451.4</ele>
        <time>2018-10-21T07:55:10Z</time>
      </trkpt>
      <trkpt lat="42.665809" lon="1.874558">
        <ele>1452.7</ele>
        <time>2018-10-21T07:55:19Z</time>
      </trkpt>
      <trkpt lat="42.665723" lon="1.874600">
        <ele>1453.7</ele>
        <time>2018-10-21T07:55:28Z</time>
      </trkpt>
      <trkpt lat="42.665658" lon="1.874681">
        <ele>1454.9</ele>
        <time>2018-10-21T07:55:37Z</time>
      </trkpt>
      <trkpt lat="42.665573" lon="1.874739">
        <ele>1456.3</ele>
        <time>2018-10-21T07:55:47Z</time>
      </trkpt>
      <trkpt lat="42.665483" lon="1.874813">
        <ele>1458.2</ele>
        <time>2018-10-21T07:56:00Z</time>
      </trkpt>
      <trkpt lat="42.665360" lon="1.874982">
        <ele>1460.1</ele>
        <time>2018-10-21T07:56:12Z</time>
      </trkpt>
      <trkpt lat="42.665249" lon="1.875001">
        <ele>1461.3</ele>
        <time>2018-10-21T07:56:23Z</time>
      </trkpt>
      <trkpt lat="42.665171" lon="1.874920">
        <ele>1464.2</ele>
        <time>2018-10-21T07:56:46Z</time>
      </trkpt>
      <trkpt lat="42.665058" lon="1.875013">
        <ele>1465.7</ele>
        <time>2018-10-21T07:57:03Z</time>
      </trkpt>
      <trkpt lat="42.664996" lon="1.875079">
        <ele>1469.1</ele>
        <time>2018-10-21T07:57:18Z</time>
      </trkpt>
      <trkpt lat="42.664903" lon="1.875202">
        <ele>1471.8</ele>
        <time>2018-10-21T07:57:39Z</time>
      </trkpt>
      <trkpt lat="42.664840" lon="1.875357">
        <ele>1472.9</ele>
        <time>2018-10-21T07:57:53Z</time>
      </trkpt>
      <trkpt lat="42.664808" lon="1.875487">
        <ele>1474.3</ele>
        <time>2018-10-21T07:58:07Z</time>
      </trkpt>
      <trkpt lat="42.664711" lon="1.875675">
        <ele>1476.2</ele>
        <time>2018-10-21T07:58:22Z</time>
      </trkpt>
      <trkpt lat="42.664613" lon="1.875782">
        <ele>1477.8</ele>
        <time>2018-10-21T07:58:35Z</time>
      </trkpt>
      <trkpt lat="42.664586" lon="1.875863">
        <ele>1477.8</ele>
        <time>2018-10-21T07:58:54Z</time>
      </trkpt>
      <trkpt lat="42.664559" lon="1.875913">
        <ele>1478.2</ele>
        <time>2018-10-21T07:59:18Z</time>
      </trkpt>
      <trkpt lat="42.664465" lon="1.875982">
        <ele>1477.8</ele>
        <time>2018-10-21T07:59:32Z</time>
      </trkpt>
      <trkpt lat="42.664371" lon="1.876093">
        <ele>1479.0</ele>
        <time>2018-10-21T07:59:43Z</time>
      </trkpt>
      <trkpt lat="42.664315" lon="1.876164">
        <ele>1481.3</ele>
        <time>2018-10-21T07:59:57Z</time>
      </trkpt>
      <trkpt lat="42.664258" lon="1.876327">
        <ele>1484.8</ele>
        <time>2018-10-21T08:00:14Z</time>
      </trkpt>
      <trkpt lat="42.664168" lon="1.876444">
        <ele>1487.5</ele>
        <time>2018-10-21T08:00:28Z</time>
      </trkpt>
      <trkpt lat="42.664070" lon="1.876442">
        <ele>1489.6</ele>
        <time>2018-10-21T08:00:42Z</time>
      </trkpt>
      <trkpt lat="42.663958" lon="1.876474">
        <ele>1491.6</ele>
        <time>2018-10-21T08:00:56Z</time>
      </trkpt>
      <trkpt lat="42.663913" lon="1.876406">
        <ele>1494.4</ele>
        <time>2018-10-21T08:01:12Z</time>
      </trkpt>
      <trkpt lat="42.663790" lon="1.876450">
        <ele>1497.5</ele>
        <time>2018-10-21T08:01:30Z</time>
      </trkpt>
      <trkpt lat="42.663653" lon="1.876529">
        <ele>1499.9</ele>
        <time>2018-10-21T08:01:47Z</time>
      </trkpt>
      <trkpt lat="42.663569" lon="1.876576">
        <ele>1502.3</ele>
        <time>2018-10-21T08:02:02Z</time>
      </trkpt>
      <trkpt lat="42.663470" lon="1.876600">
        <ele>1506.0</ele>
        <time>2018-10-21T08:02:24Z</time>
      </trkpt>
      <trkpt lat="42.663328" lon="1.876652">
        <ele>1510.1</ele>
        <time>2018-10-21T08:02:41Z</time>
      </trkpt>
      <trkpt lat="42.663176" lon="1.876733">
        <ele>1512.0</ele>
        <time>2018-10-21T08:02:59Z</time>
      </trkpt>
      <trkpt lat="42.663115" lon="1.876823">
        <ele>1512.8</ele>
        <time>2018-10-21T08:03:16Z</time>
      </trkpt>
      <trkpt lat="42.663018" lon="1.876827">
        <ele>1514.3</ele>
        <time>2018-10-21T08:03:29Z</time>
      </trkpt>
      <trkpt lat="42.662928" lon="1.876827">
        <ele>1515.4</ele>
        <time>2018-10-21T08:03:46Z</time>
      </trkpt>
      <trkpt lat="42.662850" lon="1.876924">
        <ele>1516.0</ele>
        <time>2018-10-21T08:04:03Z</time>
      </trkpt>
      <trkpt lat="42.662763" lon="1.877054">
        <ele>1518.0</ele>
        <time>2018-10-21T08:04:21Z</time>
      </trkpt>
      <trkpt lat="42.662632" lon="1.877142">
        <ele>1519.6</ele>
        <time>2018-10-21T08:04:35Z</time>
      </trkpt>
      <trkpt lat="42.662514" lon="1.877173">
        <ele>1521.3</ele>
        <time>2018-10-21T08:04:49Z</time>
      </trkpt>
      <trkpt lat="42.662426" lon="1.877221">
        <ele>1523.7</ele>
        <time>2018-10-21T08:05:04Z</time>
      </trkpt>
      <trkpt lat="42.662369" lon="1.877314">
        <ele>1525.6</ele>
        <time>2018-10-21T08:05:21Z</time>
      </trkpt>
      <trkpt lat="42.662267" lon="1.877320">
        <ele>1526.7</ele>
        <time>2018-10-21T08:05:35Z</time>
      </trkpt>
      <trkpt lat="42.662201" lon="1.877247">
        <ele>1530.3</ele>
        <time>2018-10-21T08:05:56Z</time>
      </trkpt>
      <trkpt lat="42.662097" lon="1.877261">
        <ele>1533.4</ele>
        <time>2018-10-21T08:06:18Z</time>
      </trkpt>
      <trkpt lat="42.661991" lon="1.877337">
        <ele>1534.9</ele>
        <time>2018-10-21T08:06:35Z</time>
      </trkpt>
      <trkpt lat="42.661863" lon="1.877359">
        <ele>1537.5</ele>
        <time>2018-10-21T08:06:54Z</time>
      </trkpt>
      <trkpt lat="42.661738" lon="1.877417">
        <ele>1539.8</ele>
        <time>2018-10-21T08:07:09Z</time>
      </trkpt>
      <trkpt lat="42.661593" lon="1.877511">
        <ele>1542.4</ele>
        <time>2018-10-21T08:07:25Z</time>
      </trkpt>
      <trkpt lat="42.661506" lon="1.877556">
        <ele>1545.8</ele>
        <time>2018-10-21T08:07:42Z</time>
      </trkpt>
      <trkpt lat="42.661394" lon="1.877572">
        <ele>1549.3</ele>
        <time>2018-10-21T08:08:02Z</time>
      </trkpt>
      <trkpt lat="42.661300" lon="1.877503">
        <ele>1552.7</ele>
        <time>2018-10-21T08:08:20Z</time>
      </trkpt>
      <trkpt lat="42.661203" lon="1.877560">
        <ele>1555.7</ele>
        <time>2018-10-21T08:08:40Z</time>
      </trkpt>
      <trkpt lat="42.661098" lon="1.877647">
        <ele>1558.7</ele>
        <time>2018-10-21T08:08:55Z</time>
      </trkpt>
      <trkpt lat="42.661004" lon="1.877707">
        <ele>1561.4</ele>
        <time>2018-10-21T08:09:09Z</time>
      </trkpt>
      <trkpt lat="42.660901" lon="1.877801">
        <ele>1563.7</ele>
        <time>2018-10-21T08:09:23Z</time>
      </trkpt>
      <trkpt lat="42.660797" lon="1.877912">
        <ele>1565.9</ele>
        <time>2018-10-21T08:09:37Z</time>
      </trkpt>
      <trkpt lat="42.660677" lon="1.877983">
        <ele>1567.4</ele>
        <time>2018-10-21T08:09:51Z</time>
      </trkpt>
      <trkpt lat="42.660581" lon="1.878102">
        <ele>1568.5</ele>
        <time>2018-10-21T08:10:03Z</time>
      </trkpt>
      <trkpt lat="42.660494" lon="1.878215">
        <ele>1569.8</ele>
        <time>2018-10-21T08:10:15Z</time>
      </trkpt>
      <trkpt lat="42.660408" lon="1.878298">
        <ele>1571.4</ele>
        <time>2018-10-21T08:10:28Z</time>
      </trkpt>
      <trkpt lat="42.660277" lon="1.878429">
        <ele>1573.5</ele>
        <time>2018-10-21T08:10:43Z</time>
      </trkpt>
      <trkpt lat="42.660187" lon="1.878575">
        <ele>1575.0</ele>
        <time>2018-10-21T08:10:56Z</time>
      </trkpt>
      <trkpt lat="42.660059" lon="1.878613">
        <ele>1577.9</ele>
        <time>2018-10-21T08:11:14Z</time>
      </trkpt>
      <trkpt lat="42.659991" lon="1.878562">
        <ele>1582.7</ele>
        <time>2018-10-21T08:11:39Z</time>
      </trkpt>
      <trkpt lat="42.659919" lon="1.878559">
        <ele>1586.1</ele>
        <time>2018-10-21T08:11:56Z</time>
      </trkpt>
      <trkpt lat="42.659826" lon="1.878510">
        <ele>1589.8</ele>
        <time>2018-10-21T08:12:14Z</time>
      </trkpt>
      <trkpt lat="42.659772" lon="1.878531">
        <ele>1592.4</ele>
        <time>2018-10-21T08:12:29Z</time>
      </trkpt>
      <trkpt lat="42.659656" lon="1.878518">
        <ele>1595.5</ele>
        <time>2018-10-21T08:12:45Z</time>
      </trkpt>
      <trkpt lat="42.659553" lon="1.878566">
        <ele>1598.2</ele>
        <time>2018-10-21T08:13:02Z</time>
      </trkpt>
      <trkpt lat="42.659429" lon="1.878627">
        <ele>1601.1</ele>
        <time>2018-10-21T08:13:20Z</time>
      </trkpt>
      <trkpt lat="42.659300" lon="1.878693">
        <ele>1603.6</ele>
        <time>2018-10-21T08:13:36Z</time>
      </trkpt>
      <trkpt lat="42.659266" lon="1.878749">
        <ele>1608.1</ele>
        <time>2018-10-21T08:14:04Z</time>
      </trkpt>
      <trkpt lat="42.659152" lon="1.878828">
        <ele>1610.7</ele>
        <time>2018-10-21T08:14:21Z</time>
      </trkpt>
      <trkpt lat="42.658959" lon="1.878975">
        <ele>1614.1</ele>
        <time>2018-10-21T08:14:40Z</time>
      </trkpt>
      <trkpt lat="42.658856" lon="1.879035">
        <ele>1614.7</ele>
        <time>2018-10-21T08:14:51Z</time>
      </trkpt>
      <trkpt lat="42.658786" lon="1.879128">
        <ele>1615.0</ele>
        <time>2018-10-21T08:15:02Z</time>
      </trkpt>
      <trkpt lat="42.658795" lon="1.879225">
        <ele>1616.2</ele>
        <time>2018-10-21T08:15:15Z</time>
      </trkpt>
      <trkpt lat="42.658784" lon="1.879369">
        <ele>1616.9</ele>
        <time>2018-10-21T08:15:26Z</time>
      </trkpt>
      <trkpt lat="42.658770" lon="1.879509">
        <ele>1616.6</ele>
        <time>2018-10-21T08:15:37Z</time>
      </trkpt>
      <trkpt lat="42.658744" lon="1.879514">
        <ele>1615.5</ele>
        <time>2018-10-21T08:16:30Z</time>
      </trkpt>
      <trkpt lat="42.658740" lon="1.879553">
        <ele>1618.7</ele>
        <time>2018-10-21T08:20:05Z</time>
      </trkpt>
      <trkpt lat="42.658701" lon="1.879687">
        <ele>1617.8</ele>
        <time>2018-10-21T08:20:18Z</time>
      </trkpt>
      <trkpt lat="42.658724" lon="1.879774">
        <ele>1617.6</ele>
        <time>2018-10-21T08:20:29Z</time>
      </trkpt>
      <trkpt lat="42.658687" lon="1.879878">
        <ele>1617.7</ele>
        <time>2018-10-21T08:20:42Z</time>
      </trkpt>
      <trkpt lat="42.658631" lon="1.879993">
        <ele>1619.7</ele>
        <time>2018-10-21T08:20:55Z</time>
      </trkpt>
      <trkpt lat="42.658572" lon="1.880124">
        <ele>1620.4</ele>
        <time>2018-10-21T08:21:06Z</time>
      </trkpt>
      <trkpt lat="42.658495" lon="1.880250">
        <ele>1622.3</ele>
        <time>2018-10-21T08:21:18Z</time>
      </trkpt>
      <trkpt lat="42.658460" lon="1.880377">
        <ele>1624.8</ele>
        <time>2018-10-21T08:21:33Z</time>
      </trkpt>
      <trkpt lat="42.658446" lon="1.880516">
        <ele>1626.8</ele>
        <time>2018-10-21T08:21:45Z</time>
      </trkpt>
      <trkpt lat="42.658379" lon="1.880604">
        <ele>1629.2</ele>
        <time>2018-10-21T08:21:58Z</time>
      </trkpt>
      <trkpt lat="42.658327" lon="1.880696">
        <ele>1631.6</ele>
        <time>2018-10-21T08:22:13Z</time>
      </trkpt>
      <trkpt lat="42.658310" lon="1.880807">
        <ele>1634.0</ele>
        <time>2018-10-21T08:22:28Z</time>
      </trkpt>
      <trkpt lat="42.658324" lon="1.880932">
        <ele>1635.9</ele>
        <time>2018-10-21T08:22:40Z</time>
      </trkpt>
      <trkpt lat="42.658332" lon="1.881054">
        <ele>1637.9</ele>
        <time>2018-10-21T08:22:54Z</time>
      </trkpt>
      <trkpt lat="42.658336" lon="1.881178">
        <ele>1640.7</ele>
        <time>2018-10-21T08:23:07Z</time>
      </trkpt>
      <trkpt lat="42.658342" lon="1.881306">
        <ele>1643.3</ele>
        <time>2018-10-21T08:23:21Z</time>
      </trkpt>
      <trkpt lat="42.658363" lon="1.881432">
        <ele>1645.8</ele>
        <time>2018-10-21T08:23:35Z</time>
      </trkpt>
      <trkpt lat="42.658331" lon="1.881562">
        <ele>1649.0</ele>
        <time>2018-10-21T08:23:49Z</time>
      </trkpt>
      <trkpt lat="42.658346" lon="1.881689">
        <ele>1652.5</ele>
        <time>2018-10-21T08:24:04Z</time>
      </trkpt>
      <trkpt lat="42.658416" lon="1.881741">
        <ele>1653.3</ele>
        <time>2018-10-21T08:24:16Z</time>
      </trkpt>
      <trkpt lat="42.658541" lon="1.881705">
        <ele>1653.3</ele>
        <time>2018-10-21T08:24:29Z</time>
      </trkpt>
      <trkpt lat="42.658646" lon="1.881692">
        <ele>1656.3</ele>
        <time>2018-10-21T08:24:45Z</time>
      </trkpt>
      <trkpt lat="42.658702" lon="1.881765">
        <ele>1658.9</ele>
        <time>2018-10-21T08:24:57Z</time>
      </trkpt>
      <trkpt lat="42.658806" lon="1.881849">
        <ele>1662.6</ele>
        <time>2018-10-21T08:25:12Z</time>
      </trkpt>
      <trkpt lat="42.658901" lon="1.881932">
        <ele>1665.4</ele>
        <time>2018-10-21T08:25:27Z</time>
      </trkpt>
      <trkpt lat="42.658982" lon="1.882027">
        <ele>1668.4</ele>
        <time>2018-10-21T08:25:40Z</time>
      </trkpt>
      <trkpt lat="42.659048" lon="1.882113">
        <ele>1672.1</ele>
        <time>2018-10-21T08:25:56Z</time>
      </trkpt>
      <trkpt lat="42.659149" lon="1.882209">
        <ele>1675.8</ele>
        <time>2018-10-21T08:26:13Z</time>
      </trkpt>
      <trkpt lat="42.659236" lon="1.882286">
        <ele>1678.5</ele>
        <time>2018-10-21T08:26:28Z</time>
      </trkpt>
      <trkpt lat="42.659339" lon="1.882373">
        <ele>1682.4</ele>
        <time>2018-10-21T08:26:45Z</time>
      </trkpt>
      <trkpt lat="42.659462" lon="1.882426">
        <ele>1685.0</ele>
        <time>2018-10-21T08:26:58Z</time>
      </trkpt>
      <trkpt lat="42.659553" lon="1.882515">
        <ele>1689.2</ele>
        <time>2018-10-21T08:27:14Z</time>
      </trkpt>
      <trkpt lat="42.659635" lon="1.882601">
        <ele>1692.7</ele>
        <time>2018-10-21T08:27:30Z</time>
      </trkpt>
      <trkpt lat="42.659687" lon="1.882742">
        <ele>1696.1</ele>
        <time>2018-10-21T08:27:45Z</time>
      </trkpt>
      <trkpt lat="42.659808" lon="1.882795">
        <ele>1697.8</ele>
        <time>2018-10-21T08:27:59Z</time>
      </trkpt>
      <trkpt lat="42.659864" lon="1.882877">
        <ele>1701.4</ele>
        <time>2018-10-21T08:28:17Z</time>
      </trkpt>
      <trkpt lat="42.659862" lon="1.882972">
        <ele>1705.3</ele>
        <time>2018-10-21T08:28:35Z</time>
      </trkpt>
      <trkpt lat="42.659890" lon="1.883048">
        <ele>1709.7</ele>
        <time>2018-10-21T08:28:59Z</time>
      </trkpt>
      <trkpt lat="42.659789" lon="1.883068">
        <ele>1711.6</ele>
        <time>2018-10-21T08:29:12Z</time>
      </trkpt>
      <trkpt lat="42.659715" lon="1.883146">
        <ele>1714.5</ele>
        <time>2018-10-21T08:29:28Z</time>
      </trkpt>
      <trkpt lat="42.659770" lon="1.883219">
        <ele>1718.1</ele>
        <time>2018-10-21T08:29:44Z</time>
      </trkpt>
      <trkpt lat="42.659839" lon="1.883330">
        <ele>1722.0</ele>
        <time>2018-10-21T08:30:01Z</time>
      </trkpt>
      <trkpt lat="42.659925" lon="1.883397">
        <ele>1724.9</ele>
        <time>2018-10-21T08:30:15Z</time>
      </trkpt>
      <trkpt lat="42.660007" lon="1.883479">
        <ele>1728.9</ele>
        <time>2018-10-21T08:30:33Z</time>
      </trkpt>
      <trkpt lat="42.660091" lon="1.883570">
        <ele>1733.8</ele>
        <time>2018-10-21T08:30:52Z</time>
      </trkpt>
      <trkpt lat="42.660138" lon="1.883670">
        <ele>1736.6</ele>
        <time>2018-10-21T08:31:04Z</time>
      </trkpt>
      <trkpt lat="42.660211" lon="1.883765">
        <ele>1740.1</ele>
        <time>2018-10-21T08:31:19Z</time>
      </trkpt>
      <trkpt lat="42.660279" lon="1.883859">
        <ele>1742.9</ele>
        <time>2018-10-21T08:31:34Z</time>
      </trkpt>
      <trkpt lat="42.660344" lon="1.883974">
        <ele>1745.4</ele>
        <time>2018-10-21T08:31:47Z</time>
      </trkpt>
      <trkpt lat="42.660407" lon="1.884062">
        <ele>1748.4</ele>
        <time>2018-10-21T08:31:59Z</time>
      </trkpt>
      <trkpt lat="42.660478" lon="1.884138">
        <ele>1750.8</ele>
        <time>2018-10-21T08:32:16Z</time>
      </trkpt>
      <trkpt lat="42.660487" lon="1.884251">
        <ele>1753.9</ele>
        <time>2018-10-21T08:32:36Z</time>
      </trkpt>
      <trkpt lat="42.660553" lon="1.884345">
        <ele>1757.7</ele>
        <time>2018-10-21T08:32:53Z</time>
      </trkpt>
      <trkpt lat="42.660536" lon="1.884448">
        <ele>1761.5</ele>
        <time>2018-10-21T08:33:12Z</time>
      </trkpt>
      <trkpt lat="42.660581" lon="1.884530">
        <ele>1765.1</ele>
        <time>2018-10-21T08:33:28Z</time>
      </trkpt>
      <trkpt lat="42.660605" lon="1.884625">
        <ele>1768.8</ele>
        <time>2018-10-21T08:33:47Z</time>
      </trkpt>
      <trkpt lat="42.660684" lon="1.884633">
        <ele>1771.4</ele>
        <time>2018-10-21T08:34:03Z</time>
      </trkpt>
      <trkpt lat="42.660761" lon="1.884570">
        <ele>1772.8</ele>
        <time>2018-10-21T08:34:20Z</time>
      </trkpt>
      <trkpt lat="42.660822" lon="1.884490">
        <ele>1774.2</ele>
        <time>2018-10-21T08:34:33Z</time>
      </trkpt>
      <trkpt lat="42.660890" lon="1.884391">
        <ele>1775.9</ele>
        <time>2018-10-21T08:34:46Z</time>
      </trkpt>
      <trkpt lat="42.660919" lon="1.884453">
        <ele>1779.5</ele>
        <time>2018-10-21T08:39:05Z</time>
      </trkpt>
      <trkpt lat="42.660908" lon="1.884576">
        <ele>1781.0</ele>
        <time>2018-10-21T08:39:23Z</time>
      </trkpt>
      <trkpt lat="42.660901" lon="1.884700">
        <ele>1784.0</ele>
        <time>2018-10-21T08:39:41Z</time>
      </trkpt>
      <trkpt lat="42.660870" lon="1.884818">
        <ele>1787.6</ele>
        <time>2018-10-21T08:39:58Z</time>
      </trkpt>
      <trkpt lat="42.660877" lon="1.884933">
        <ele>1790.4</ele>
        <time>2018-10-21T08:40:15Z</time>
      </trkpt>
      <trkpt lat="42.660875" lon="1.885049">
        <ele>1795.2</ele>
        <time>2018-10-21T08:40:37Z</time>
      </trkpt>
      <trkpt lat="42.660951" lon="1.885073">
        <ele>1798.9</ele>
        <time>2018-10-21T08:40:56Z</time>
      </trkpt>
      <trkpt lat="42.661032" lon="1.885037">
        <ele>1802.2</ele>
        <time>2018-10-21T08:41:13Z</time>
      </trkpt>
      <trkpt lat="42.661023" lon="1.885162">
        <ele>1804.3</ele>
        <time>2018-10-21T08:41:29Z</time>
      </trkpt>
      <trkpt lat="42.660988" lon="1.885284">
        <ele>1808.5</ele>
        <time>2018-10-21T08:41:48Z</time>
      </trkpt>
      <trkpt lat="42.660966" lon="1.885429">
        <ele>1813.1</ele>
        <time>2018-10-21T08:42:09Z</time>
      </trkpt>
      <trkpt lat="42.660967" lon="1.885555">
        <ele>1817.0</ele>
        <time>2018-10-21T08:42:26Z</time>
      </trkpt>
      <trkpt lat="42.660957" lon="1.885684">
        <ele>1820.1</ele>
        <time>2018-10-21T08:42:39Z</time>
      </trkpt>
      <trkpt lat="42.660941" lon="1.885799">
        <ele>1824.3</ele>
        <time>2018-10-21T08:42:54Z</time>
      </trkpt>
      <trkpt lat="42.660911" lon="1.885930">
        <ele>1827.6</ele>
        <time>2018-10-21T08:43:08Z</time>
      </trkpt>
      <trkpt lat="42.660909" lon="1.886056">
        <ele>1830.4</ele>
        <time>2018-10-21T08:43:21Z</time>
      </trkpt>
      <trkpt lat="42.660883" lon="1.886163">
        <ele>1833.3</ele>
        <time>2018-10-21T08:43:35Z</time>
      </trkpt>
      <trkpt lat="42.660865" lon="1.886286">
        <ele>1836.8</ele>
        <time>2018-10-21T08:43:50Z</time>
      </trkpt>
      <trkpt lat="42.660848" lon="1.886409">
        <ele>1839.3</ele>
        <time>2018-10-21T08:44:04Z</time>
      </trkpt>
      <trkpt lat="42.660853" lon="1.886524">
        <ele>1843.9</ele>
        <time>2018-10-21T08:44:21Z</time>
      </trkpt>
      <trkpt lat="42.660874" lon="1.886660">
        <ele>1848.4</ele>
        <time>2018-10-21T08:44:40Z</time>
      </trkpt>
      <trkpt lat="42.660878" lon="1.886788">
        <ele>1852.6</ele>
        <time>2018-10-21T08:44:58Z</time>
      </trkpt>
      <trkpt lat="42.660906" lon="1.886899">
        <ele>1857.3</ele>
        <time>2018-10-21T08:45:17Z</time>
      </trkpt>
      <trkpt lat="42.660895" lon="1.887016">
        <ele>1861.3</ele>
        <time>2018-10-21T08:45:36Z</time>
      </trkpt>
      <trkpt lat="42.660896" lon="1.887125">
        <ele>1866.2</ele>
        <time>2018-10-21T08:45:57Z</time>
      </trkpt>
      <trkpt lat="42.660911" lon="1.887230">
        <ele>1870.7</ele>
        <time>2018-10-21T08:46:18Z</time>
      </trkpt>
      <trkpt lat="42.660912" lon="1.887347">
        <ele>1874.5</ele>
        <time>2018-10-21T08:46:37Z</time>
      </trkpt>
      <trkpt lat="42.660866" lon="1.887454">
        <ele>1878.7</ele>
        <time>2018-10-21T08:46:58Z</time>
      </trkpt>
      <trkpt lat="42.660842" lon="1.887563">
        <ele>1882.8</ele>
        <time>2018-10-21T08:47:18Z</time>
      </trkpt>
      <trkpt lat="42.660898" lon="1.887632">
        <ele>1887.0</ele>
        <time>2018-10-21T08:47:36Z</time>
      </trkpt>
      <trkpt lat="42.660914" lon="1.887754">
        <ele>1892.0</ele>
        <time>2018-10-21T08:47:59Z</time>
      </trkpt>
      <trkpt lat="42.660920" lon="1.887876">
        <ele>1895.2</ele>
        <time>2018-10-21T08:48:17Z</time>
      </trkpt>
      <trkpt lat="42.660913" lon="1.888007">
        <ele>1898.4</ele>
        <time>2018-10-21T08:48:33Z</time>
      </trkpt>
      <trkpt lat="42.660893" lon="1.888132">
        <ele>1902.0</ele>
        <time>2018-10-21T08:48:51Z</time>
      </trkpt>
      <trkpt lat="42.660908" lon="1.888245">
        <ele>1905.8</ele>
        <time>2018-10-21T08:49:09Z</time>
      </trkpt>
      <trkpt lat="42.660905" lon="1.888349">
        <ele>1910.4</ele>
        <time>2018-10-21T08:49:29Z</time>
      </trkpt>
      <trkpt lat="42.660938" lon="1.888454">
        <ele>1915.4</ele>
        <time>2018-10-21T08:49:51Z</time>
      </trkpt>
      <trkpt lat="42.660940" lon="1.888566">
        <ele>1920.1</ele>
        <time>2018-10-21T08:50:12Z</time>
      </trkpt>
      <trkpt lat="42.660923" lon="1.888675">
        <ele>1923.8</ele>
        <time>2018-10-21T08:50:28Z</time>
      </trkpt>
      <trkpt lat="42.660896" lon="1.888777">
        <ele>1927.8</ele>
        <time>2018-10-21T08:50:47Z</time>
      </trkpt>
      <trkpt lat="42.660903" lon="1.888907">
        <ele>1932.6</ele>
        <time>2018-10-21T08:51:10Z</time>
      </trkpt>
      <trkpt lat="42.660927" lon="1.888988">
        <ele>1937.8</ele>
        <time>2018-10-21T08:51:31Z</time>
      </trkpt>
      <trkpt lat="42.661006" lon="1.888942">
        <ele>1941.5</ele>
        <time>2018-10-21T08:51:51Z</time>
      </trkpt>
      <trkpt lat="42.661069" lon="1.888842">
        <ele>1944.3</ele>
        <time>2018-10-21T08:52:07Z</time>
      </trkpt>
      <trkpt lat="42.661163" lon="1.888854">
        <ele>1947.6</ele>
        <time>2018-10-21T08:52:25Z</time>
      </trkpt>
      <trkpt lat="42.661236" lon="1.888871">
        <ele>1953.3</ele>
        <time>2018-10-21T08:52:44Z</time>
      </trkpt>
      <trkpt lat="42.661328" lon="1.888862">
        <ele>1957.8</ele>
        <time>2018-10-21T08:53:00Z</time>
      </trkpt>
      <trkpt lat="42.661417" lon="1.888858">
        <ele>1961.0</ele>
        <time>2018-10-21T08:53:16Z</time>
      </trkpt>
      <trkpt lat="42.661506" lon="1.888907">
        <ele>1963.9</ele>
        <time>2018-10-21T08:53:32Z</time>
      </trkpt>
      <trkpt lat="42.661570" lon="1.888952">
        <ele>1967.1</ele>
        <time>2018-10-21T08:53:47Z</time>
      </trkpt>
      <trkpt lat="42.661657" lon="1.888982">
        <ele>1971.3</ele>
        <time>2018-10-21T08:54:03Z</time>
      </trkpt>
      <trkpt lat="42.661713" lon="1.889065">
        <ele>1976.2</ele>
        <time>2018-10-21T08:54:23Z</time>
      </trkpt>
      <trkpt lat="42.661728" lon="1.889117">
        <ele>1981.9</ele>
        <time>2018-10-21T09:00:04Z</time>
      </trkpt>
      <trkpt lat="42.661740" lon="1.889137">
        <ele>1984.3</ele>
        <time>2018-10-21T09:05:39Z</time>
      </trkpt>
      <trkpt lat="42.661757" lon="1.889255">
        <ele>1985.0</ele>
        <time>2018-10-21T09:06:09Z</time>
      </trkpt>
      <trkpt lat="42.661811" lon="1.889369">
        <ele>1985.6</ele>
        <time>2018-10-21T09:06:20Z</time>
      </trkpt>
      <trkpt lat="42.661864" lon="1.889474">
        <ele>1986.6</ele>
        <time>2018-10-21T09:06:29Z</time>
      </trkpt>
      <trkpt lat="42.661909" lon="1.889594">
        <ele>1988.0</ele>
        <time>2018-10-21T09:06:40Z</time>
      </trkpt>
      <trkpt lat="42.661968" lon="1.889690">
        <ele>1989.6</ele>
        <time>2018-10-21T09:06:50Z</time>
      </trkpt>
      <trkpt lat="42.662024" lon="1.889776">
        <ele>1992.1</ele>
        <time>2018-10-21T09:07:04Z</time>
      </trkpt>
      <trkpt lat="42.662079" lon="1.889894">
        <ele>1995.8</ele>
        <time>2018-10-21T09:07:20Z</time>
      </trkpt>
      <trkpt lat="42.662075" lon="1.890025">
        <ele>1998.4</ele>
        <time>2018-10-21T09:07:34Z</time>
      </trkpt>
      <trkpt lat="42.662118" lon="1.890142">
        <ele>2001.4</ele>
        <time>2018-10-21T09:07:49Z</time>
      </trkpt>
      <trkpt lat="42.662154" lon="1.890257">
        <ele>2004.0</ele>
        <time>2018-10-21T09:08:04Z</time>
      </trkpt>
      <trkpt lat="42.662171" lon="1.890379">
        <ele>2006.9</ele>
        <time>2018-10-21T09:08:18Z</time>
      </trkpt>
      <trkpt lat="42.662204" lon="1.890498">
        <ele>2010.3</ele>
        <time>2018-10-21T09:08:34Z</time>
      </trkpt>
      <trkpt lat="42.662234" lon="1.890602">
        <ele>2012.9</ele>
        <time>2018-10-21T09:08:50Z</time>
      </trkpt>
      <trkpt lat="42.662213" lon="1.890724">
        <ele>2015.3</ele>
        <time>2018-10-21T09:09:04Z</time>
      </trkpt>
      <trkpt lat="42.662207" lon="1.890844">
        <ele>2018.4</ele>
        <time>2018-10-21T09:09:19Z</time>
      </trkpt>
      <trkpt lat="42.662242" lon="1.890959">
        <ele>2021.6</ele>
        <time>2018-10-21T09:09:36Z</time>
      </trkpt>
      <trkpt lat="42.662238" lon="1.891098">
        <ele>2023.8</ele>
        <time>2018-10-21T09:09:50Z</time>
      </trkpt>
      <trkpt lat="42.662241" lon="1.891213">
        <ele>2027.0</ele>
        <time>2018-10-21T09:10:06Z</time>
      </trkpt>
      <trkpt lat="42.662265" lon="1.891340">
        <ele>2030.5</ele>
        <time>2018-10-21T09:10:24Z</time>
      </trkpt>
      <trkpt lat="42.662264" lon="1.891455">
        <ele>2033.8</ele>
        <time>2018-10-21T09:10:45Z</time>
      </trkpt>
      <trkpt lat="42.662267" lon="1.891548">
        <ele>2036.3</ele>
        <time>2018-10-21T09:11:01Z</time>
      </trkpt>
      <trkpt lat="42.662235" lon="1.891684">
        <ele>2039.3</ele>
        <time>2018-10-21T09:11:39Z</time>
      </trkpt>
      <trkpt lat="42.662195" lon="1.891822">
        <ele>2040.9</ele>
        <time>2018-10-21T09:11:53Z</time>
      </trkpt>
      <trkpt lat="42.662159" lon="1.891936">
        <ele>2041.9</ele>
        <time>2018-10-21T09:12:06Z</time>
      </trkpt>
      <trkpt lat="42.662080" lon="1.892036">
        <ele>2043.2</ele>
        <time>2018-10-21T09:12:20Z</time>
      </trkpt>
      <trkpt lat="42.662010" lon="1.892138">
        <ele>2045.2</ele>
        <time>2018-10-21T09:12:35Z</time>
      </trkpt>
      <trkpt lat="42.662031" lon="1.892253">
        <ele>2047.4</ele>
        <time>2018-10-21T09:12:51Z</time>
      </trkpt>
      <trkpt lat="42.661961" lon="1.892350">
        <ele>2051.0</ele>
        <time>2018-10-21T09:13:07Z</time>
      </trkpt>
      <trkpt lat="42.661931" lon="1.892458">
        <ele>2054.2</ele>
        <time>2018-10-21T09:13:25Z</time>
      </trkpt>
      <trkpt lat="42.661894" lon="1.892570">
        <ele>2057.2</ele>
        <time>2018-10-21T09:13:41Z</time>
      </trkpt>
      <trkpt lat="42.661852" lon="1.892685">
        <ele>2060.5</ele>
        <time>2018-10-21T09:13:58Z</time>
      </trkpt>
      <trkpt lat="42.661844" lon="1.892805">
        <ele>2064.2</ele>
        <time>2018-10-21T09:14:14Z</time>
      </trkpt>
      <trkpt lat="42.661861" lon="1.892873">
        <ele>2067.4</ele>
        <time>2018-10-21T09:14:40Z</time>
      </trkpt>
      <trkpt lat="42.661881" lon="1.892987">
        <ele>2069.8</ele>
        <time>2018-10-21T09:15:01Z</time>
      </trkpt>
      <trkpt lat="42.661901" lon="1.893104">
        <ele>2072.9</ele>
        <time>2018-10-21T09:15:19Z</time>
      </trkpt>
      <trkpt lat="42.661920" lon="1.893218">
        <ele>2077.0</ele>
        <time>2018-10-21T09:15:36Z</time>
      </trkpt>
      <trkpt lat="42.661921" lon="1.893332">
        <ele>2082.2</ele>
        <time>2018-10-21T09:15:57Z</time>
      </trkpt>
      <trkpt lat="42.661861" lon="1.893421">
        <ele>2085.8</ele>
        <time>2018-10-21T09:16:14Z</time>
      </trkpt>
      <trkpt lat="42.661862" lon="1.893545">
        <ele>2089.4</ele>
        <time>2018-10-21T09:16:32Z</time>
      </trkpt>
      <trkpt lat="42.661831" lon="1.893652">
        <ele>2093.4</ele>
        <time>2018-10-21T09:16:48Z</time>
      </trkpt>
      <trkpt lat="42.661805" lon="1.893751">
        <ele>2097.4</ele>
        <time>2018-10-21T09:17:06Z</time>
      </trkpt>
      <trkpt lat="42.661830" lon="1.893874">
        <ele>2101.1</ele>
        <time>2018-10-21T09:17:24Z</time>
      </trkpt>
      <trkpt lat="42.661767" lon="1.893946">
        <ele>2104.3</ele>
        <time>2018-10-21T09:17:41Z</time>
      </trkpt>
      <trkpt lat="42.661723" lon="1.894033">
        <ele>2108.3</ele>
        <time>2018-10-21T09:17:57Z</time>
      </trkpt>
      <trkpt lat="42.661673" lon="1.894108">
        <ele>2112.3</ele>
        <time>2018-10-21T09:18:16Z</time>
      </trkpt>
      <trkpt lat="42.661638" lon="1.894210">
        <ele>2116.0</ele>
        <time>2018-10-21T09:18:36Z</time>
      </trkpt>
      <trkpt lat="42.661542" lon="1.894256">
        <ele>2120.1</ele>
        <time>2018-10-21T09:18:57Z</time>
      </trkpt>
      <trkpt lat="42.661507" lon="1.894366">
        <ele>2123.6</ele>
        <time>2018-10-21T09:19:14Z</time>
      </trkpt>
      <trkpt lat="42.661485" lon="1.894483">
        <ele>2127.1</ele>
        <time>2018-10-21T09:19:31Z</time>
      </trkpt>
      <trkpt lat="42.661482" lon="1.894599">
        <ele>2130.4</ele>
        <time>2018-10-21T09:19:47Z</time>
      </trkpt>
      <trkpt lat="42.661496" lon="1.894720">
        <ele>2133.6</ele>
        <time>2018-10-21T09:20:03Z</time>
      </trkpt>
      <trkpt lat="42.661470" lon="1.894833">
        <ele>2136.9</ele>
        <time>2018-10-21T09:20:20Z</time>
      </trkpt>
      <trkpt lat="42.661427" lon="1.894929">
        <ele>2140.3</ele>
        <time>2018-10-21T09:20:36Z</time>
      </trkpt>
      <trkpt lat="42.661375" lon="1.895035">
        <ele>2144.2</ele>
        <time>2018-10-21T09:20:55Z</time>
      </trkpt>
      <trkpt lat="42.661354" lon="1.895147">
        <ele>2148.9</ele>
        <time>2018-10-21T09:21:15Z</time>
      </trkpt>
      <trkpt lat="42.661368" lon="1.895248">
        <ele>2152.8</ele>
        <time>2018-10-21T09:21:33Z</time>
      </trkpt>
      <trkpt lat="42.661317" lon="1.895341">
        <ele>2156.3</ele>
        <time>2018-10-21T09:21:53Z</time>
      </trkpt>
      <trkpt lat="42.661269" lon="1.895433">
        <ele>2160.6</ele>
        <time>2018-10-21T09:22:12Z</time>
      </trkpt>
      <trkpt lat="42.661213" lon="1.895518">
        <ele>2164.4</ele>
        <time>2018-10-21T09:22:31Z</time>
      </trkpt>
      <trkpt lat="42.661130" lon="1.895567">
        <ele>2168.9</ele>
        <time>2018-10-21T09:22:54Z</time>
      </trkpt>
      <trkpt lat="42.661098" lon="1.895669">
        <ele>2172.2</ele>
        <time>2018-10-21T09:23:15Z</time>
      </trkpt>
      <trkpt lat="42.661099" lon="1.895796">
        <ele>2176.0</ele>
        <time>2018-10-21T09:23:34Z</time>
      </trkpt>
      <trkpt lat="42.661077" lon="1.895920">
        <ele>2178.6</ele>
        <time>2018-10-21T09:23:49Z</time>
      </trkpt>
      <trkpt lat="42.661076" lon="1.896050">
        <ele>2181.5</ele>
        <time>2018-10-21T09:24:04Z</time>
      </trkpt>
      <trkpt lat="42.661036" lon="1.896164">
        <ele>2184.5</ele>
        <time>2018-10-21T09:24:18Z</time>
      </trkpt>
      <trkpt lat="42.661002" lon="1.896283">
        <ele>2187.0</ele>
        <time>2018-10-21T09:24:34Z</time>
      </trkpt>
      <trkpt lat="42.660944" lon="1.896400">
        <ele>2189.2</ele>
        <time>2018-10-21T09:24:49Z</time>
      </trkpt>
      <trkpt lat="42.660879" lon="1.896512">
        <ele>2191.8</ele>
        <time>2018-10-21T09:25:05Z</time>
      </trkpt>
      <trkpt lat="42.660819" lon="1.896605">
        <ele>2193.7</ele>
        <time>2018-10-21T09:25:17Z</time>
      </trkpt>
      <trkpt lat="42.660761" lon="1.896686">
        <ele>2196.2</ele>
        <time>2018-10-21T09:25:32Z</time>
      </trkpt>
      <trkpt lat="42.660699" lon="1.896801">
        <ele>2199.3</ele>
        <time>2018-10-21T09:25:55Z</time>
      </trkpt>
      <trkpt lat="42.660620" lon="1.896905">
        <ele>2201.6</ele>
        <time>2018-10-21T09:26:10Z</time>
      </trkpt>
      <trkpt lat="42.660550" lon="1.896994">
        <ele>2203.9</ele>
        <time>2018-10-21T09:26:23Z</time>
      </trkpt>
      <trkpt lat="42.660486" lon="1.897081">
        <ele>2207.0</ele>
        <time>2018-10-21T09:26:38Z</time>
      </trkpt>
      <trkpt lat="42.660419" lon="1.897181">
        <ele>2209.5</ele>
        <time>2018-10-21T09:26:53Z</time>
      </trkpt>
      <trkpt lat="42.660385" lon="1.897277">
        <ele>2212.4</ele>
        <time>2018-10-21T09:27:10Z</time>
      </trkpt>
      <trkpt lat="42.660342" lon="1.897386">
        <ele>2216.0</ele>
        <time>2018-10-21T09:27:25Z</time>
      </trkpt>
      <trkpt lat="42.660291" lon="1.897484">
        <ele>2220.0</ele>
        <time>2018-10-21T09:27:42Z</time>
      </trkpt>
      <trkpt lat="42.660254" lon="1.897601">
        <ele>2224.0</ele>
        <time>2018-10-21T09:28:00Z</time>
      </trkpt>
      <trkpt lat="42.660235" lon="1.897702">
        <ele>2227.3</ele>
        <time>2018-10-21T09:28:17Z</time>
      </trkpt>
      <trkpt lat="42.660158" lon="1.897797">
        <ele>2231.6</ele>
        <time>2018-10-21T09:28:36Z</time>
      </trkpt>
      <trkpt lat="42.660101" lon="1.897886">
        <ele>2236.0</ele>
        <time>2018-10-21T09:28:55Z</time>
      </trkpt>
      <trkpt lat="42.660016" lon="1.897967">
        <ele>2241.8</ele>
        <time>2018-10-21T09:29:21Z</time>
      </trkpt>
      <trkpt lat="42.659947" lon="1.898045">
        <ele>2246.3</ele>
        <time>2018-10-21T09:29:41Z</time>
      </trkpt>
      <trkpt lat="42.659868" lon="1.898083">
        <ele>2252.5</ele>
        <time>2018-10-21T09:33:39Z</time>
      </trkpt>
      <trkpt lat="42.659780" lon="1.898138">
        <ele>2255.6</ele>
        <time>2018-10-21T09:33:56Z</time>
      </trkpt>
      <trkpt lat="42.659690" lon="1.898132">
        <ele>2259.0</ele>
        <time>2018-10-21T09:34:14Z</time>
      </trkpt>
      <trkpt lat="42.659594" lon="1.898136">
        <ele>2263.0</ele>
        <time>2018-10-21T09:34:32Z</time>
      </trkpt>
      <trkpt lat="42.659515" lon="1.898168">
        <ele>2267.1</ele>
        <time>2018-10-21T09:34:48Z</time>
      </trkpt>
      <trkpt lat="42.659426" lon="1.898195">
        <ele>2271.2</ele>
        <time>2018-10-21T09:35:03Z</time>
      </trkpt>
      <trkpt lat="42.659334" lon="1.898222">
        <ele>2275.9</ele>
        <time>2018-10-21T09:35:21Z</time>
      </trkpt>
      <trkpt lat="42.659278" lon="1.898270">
        <ele>2280.1</ele>
        <time>2018-10-21T09:36:20Z</time>
      </trkpt>
      <trkpt lat="42.659213" lon="1.898217">
        <ele>2282.8</ele>
        <time>2018-10-21T09:41:27Z</time>
      </trkpt>
      <trkpt lat="42.659113" lon="1.898182">
        <ele>2284.4</ele>
        <time>2018-10-21T09:41:40Z</time>
      </trkpt>
      <trkpt lat="42.659022" lon="1.898176">
        <ele>2285.3</ele>
        <time>2018-10-21T09:41:53Z</time>
      </trkpt>
      <trkpt lat="42.658931" lon="1.898127">
        <ele>2288.1</ele>
        <time>2018-10-21T09:42:07Z</time>
      </trkpt>
      <trkpt lat="42.658851" lon="1.898085">
        <ele>2290.3</ele>
        <time>2018-10-21T09:42:20Z</time>
      </trkpt>
      <trkpt lat="42.658760" lon="1.898072">
        <ele>2294.8</ele>
        <time>2018-10-21T09:42:41Z</time>
      </trkpt>
      <trkpt lat="42.658672" lon="1.898045">
        <ele>2298.6</ele>
        <time>2018-10-21T09:43:01Z</time>
      </trkpt>
      <trkpt lat="42.658580" lon="1.898048">
        <ele>2302.4</ele>
        <time>2018-10-21T09:43:20Z</time>
      </trkpt>
      <trkpt lat="42.658489" lon="1.898015">
        <ele>2306.3</ele>
        <time>2018-10-21T09:43:40Z</time>
      </trkpt>
      <trkpt lat="42.658407" lon="1.897947">
        <ele>2306.7</ele>
        <time>2018-10-21T09:43:52Z</time>
      </trkpt>
      <trkpt lat="42.658321" lon="1.897924">
        <ele>2307.6</ele>
        <time>2018-10-21T09:44:06Z</time>
      </trkpt>
      <trkpt lat="42.658234" lon="1.897871">
        <ele>2310.4</ele>
        <time>2018-10-21T09:44:24Z</time>
      </trkpt>
      <trkpt lat="42.658165" lon="1.897944">
        <ele>2314.8</ele>
        <time>2018-10-21T09:44:45Z</time>
      </trkpt>
      <trkpt lat="42.658060" lon="1.897907">
        <ele>2318.7</ele>
        <time>2018-10-21T09:45:07Z</time>
      </trkpt>
      <trkpt lat="42.657969" lon="1.897860">
        <ele>2322.7</ele>
        <time>2018-10-21T09:45:32Z</time>
      </trkpt>
      <trkpt lat="42.657874" lon="1.897840">
        <ele>2326.2</ele>
        <time>2018-10-21T09:45:49Z</time>
      </trkpt>
      <trkpt lat="42.657782" lon="1.897820">
        <ele>2330.8</ele>
        <time>2018-10-21T09:46:10Z</time>
      </trkpt>
      <trkpt lat="42.657701" lon="1.897755">
        <ele>2333.2</ele>
        <time>2018-10-21T09:46:26Z</time>
      </trkpt>
      <trkpt lat="42.657633" lon="1.897671">
        <ele>2334.8</ele>
        <time>2018-10-21T09:46:41Z</time>
      </trkpt>
      <trkpt lat="42.657577" lon="1.897560">
        <ele>2335.6</ele>
        <time>2018-10-21T09:46:54Z</time>
      </trkpt>
      <trkpt lat="42.657496" lon="1.897495">
        <ele>2335.1</ele>
        <time>2018-10-21T09:47:05Z</time>
      </trkpt>
      <trkpt lat="42.657421" lon="1.897418">
        <ele>2335.8</ele>
        <time>2018-10-21T09:47:18Z</time>
      </trkpt>
      <trkpt lat="42.657333" lon="1.897421">
        <ele>2338.6</ele>
        <time>2018-10-21T09:47:34Z</time>
      </trkpt>
      <trkpt lat="42.657262" lon="1.897396">
        <ele>2343.2</ele>
        <time>2018-10-21T09:47:57Z</time>
      </trkpt>
      <trkpt lat="42.657206" lon="1.897290">
        <ele>2345.1</ele>
        <time>2018-10-21T09:48:10Z</time>
      </trkpt>
      <trkpt lat="42.657144" lon="1.897205">
        <ele>2344.8</ele>
        <time>2018-10-21T09:48:22Z</time>
      </trkpt>
      <trkpt lat="42.657076" lon="1.897127">
        <ele>2344.6</ele>
        <time>2018-10-21T09:48:33Z</time>
      </trkpt>
      <trkpt lat="42.657016" lon="1.897007">
        <ele>2344.5</ele>
        <time>2018-10-21T09:48:47Z</time>
      </trkpt>
      <trkpt lat="42.656934" lon="1.896952">
        <ele>2346.1</ele>
        <time>2018-10-21T09:50:35Z</time>
      </trkpt>
      <trkpt lat="42.656854" lon="1.896877">
        <ele>2347.6</ele>
        <time>2018-10-21T09:50:47Z</time>
      </trkpt>
      <trkpt lat="42.656788" lon="1.896796">
        <ele>2348.5</ele>
        <time>2018-10-21T09:51:01Z</time>
      </trkpt>
      <trkpt lat="42.656720" lon="1.896737">
        <ele>2351.8</ele>
        <time>2018-10-21T09:51:18Z</time>
      </trkpt>
      <trkpt lat="42.656641" lon="1.896680">
        <ele>2354.8</ele>
        <time>2018-10-21T09:51:33Z</time>
      </trkpt>
      <trkpt lat="42.656563" lon="1.896670">
        <ele>2357.8</ele>
        <time>2018-10-21T09:51:49Z</time>
      </trkpt>
      <trkpt lat="42.656488" lon="1.896633">
        <ele>2360.1</ele>
        <time>2018-10-21T09:52:03Z</time>
      </trkpt>
      <trkpt lat="42.656403" lon="1.896577">
        <ele>2361.9</ele>
        <time>2018-10-21T09:52:18Z</time>
      </trkpt>
      <trkpt lat="42.656318" lon="1.896521">
        <ele>2365.2</ele>
        <time>2018-10-21T09:52:33Z</time>
      </trkpt>
      <trkpt lat="42.656232" lon="1.896467">
        <ele>2368.4</ele>
        <time>2018-10-21T09:52:48Z</time>
      </trkpt>
      <trkpt lat="42.656144" lon="1.896431">
        <ele>2371.2</ele>
        <time>2018-10-21T09:53:02Z</time>
      </trkpt>
      <trkpt lat="42.656065" lon="1.896368">
        <ele>2374.2</ele>
        <time>2018-10-21T09:53:17Z</time>
      </trkpt>
      <trkpt lat="42.655976" lon="1.896323">
        <ele>2375.9</ele>
        <time>2018-10-21T09:53:29Z</time>
      </trkpt>
      <trkpt lat="42.655895" lon="1.896268">
        <ele>2377.3</ele>
        <time>2018-10-21T09:53:42Z</time>
      </trkpt>
      <trkpt lat="42.655805" lon="1.896230">
        <ele>2380.4</ele>
        <time>2018-10-21T09:53:57Z</time>
      </trkpt>
      <trkpt lat="42.655703" lon="1.896231">
        <ele>2382.8</ele>
        <time>2018-10-21T09:54:10Z</time>
      </trkpt>
      <trkpt lat="42.655606" lon="1.896263">
        <ele>2384.5</ele>
        <time>2018-10-21T09:54:22Z</time>
      </trkpt>
      <trkpt lat="42.655513" lon="1.896243">
        <ele>2384.7</ele>
        <time>2018-10-21T09:54:38Z</time>
      </trkpt>
      <trkpt lat="42.655428" lon="1.896302">
        <ele>2383.3</ele>
        <time>2018-10-21T09:54:49Z</time>
      </trkpt>
      <trkpt lat="42.655335" lon="1.896342">
        <ele>2382.9</ele>
        <time>2018-10-21T09:54:58Z</time>
      </trkpt>
      <trkpt lat="42.655244" lon="1.896401">
        <ele>2383.6</ele>
        <time>2018-10-21T09:55:08Z</time>
      </trkpt>
      <trkpt lat="42.655158" lon="1.896469">
        <ele>2384.0</ele>
        <time>2018-10-21T09:55:17Z</time>
      </trkpt>
      <trkpt lat="42.655070" lon="1.896520">
        <ele>2384.1</ele>
        <time>2018-10-21T09:55:26Z</time>
      </trkpt>
      <trkpt lat="42.654977" lon="1.896571">
        <ele>2384.6</ele>
        <time>2018-10-21T09:55:37Z</time>
      </trkpt>
      <trkpt lat="42.654873" lon="1.896578">
        <ele>2386.4</ele>
        <time>2018-10-21T09:55:51Z</time>
      </trkpt>
      <trkpt lat="42.654874" lon="1.896466">
        <ele>2389.0</ele>
        <time>2018-10-21T09:56:06Z</time>
      </trkpt>
      <trkpt lat="42.654801" lon="1.896393">
        <ele>2393.4</ele>
        <time>2018-10-21T09:56:26Z</time>
      </trkpt>
      <trkpt lat="42.654711" lon="1.896367">
        <ele>2396.8</ele>
        <time>2018-10-21T09:56:44Z</time>
      </trkpt>
      <trkpt lat="42.654608" lon="1.896379">
        <ele>2398.9</ele>
        <time>2018-10-21T09:56:58Z</time>
      </trkpt>
      <trkpt lat="42.654513" lon="1.896368">
        <ele>2402.6</ele>
        <time>2018-10-21T09:57:16Z</time>
      </trkpt>
      <trkpt lat="42.654407" lon="1.896372">
        <ele>2405.4</ele>
        <time>2018-10-21T09:57:33Z</time>
      </trkpt>
      <trkpt lat="42.654315" lon="1.896347">
        <ele>2408.6</ele>
        <time>2018-10-21T09:57:49Z</time>
      </trkpt>
      <trkpt lat="42.654239" lon="1.896301">
        <ele>2411.6</ele>
        <time>2018-10-21T09:58:04Z</time>
      </trkpt>
      <trkpt lat="42.654152" lon="1.896328">
        <ele>2413.5</ele>
        <time>2018-10-21T09:58:18Z</time>
      </trkpt>
      <trkpt lat="42.654062" lon="1.896358">
        <ele>2413.3</ele>
        <time>2018-10-21T09:58:30Z</time>
      </trkpt>
      <trkpt lat="42.653963" lon="1.896360">
        <ele>2412.2</ele>
        <time>2018-10-21T09:58:40Z</time>
      </trkpt>
      <trkpt lat="42.653870" lon="1.896395">
        <ele>2411.7</ele>
        <time>2018-10-21T09:58:49Z</time>
      </trkpt>
      <trkpt lat="42.653782" lon="1.896394">
        <ele>2413.6</ele>
        <time>2018-10-21T10:02:47Z</time>
      </trkpt>
      <trkpt lat="42.653714" lon="1.896372">
        <ele>2415.0</ele>
        <time>2018-10-21T10:03:12Z</time>
      </trkpt>
      <trkpt lat="42.653673" lon="1.896490">
        <ele>2417.8</ele>
        <time>2018-10-21T10:03:29Z</time>
      </trkpt>
      <trkpt lat="42.653593" lon="1.896585">
        <ele>2421.0</ele>
        <time>2018-10-21T10:03:47Z</time>
      </trkpt>
      <trkpt lat="42.653517" lon="1.896577">
        <ele>2423.9</ele>
        <time>2018-10-21T10:04:06Z</time>
      </trkpt>
      <trkpt lat="42.653446" lon="1.896648">
        <ele>2427.5</ele>
        <time>2018-10-21T10:04:26Z</time>
      </trkpt>
      <trkpt lat="42.653370" lon="1.896630">
        <ele>2430.6</ele>
        <time>2018-10-21T10:04:44Z</time>
      </trkpt>
      <trkpt lat="42.653347" lon="1.896573">
        <ele>2432.3</ele>
        <time>2018-10-21T10:06:51Z</time>
      </trkpt>
      <trkpt lat="42.653287" lon="1.896467">
        <ele>2431.4</ele>
        <time>2018-10-21T10:07:02Z</time>
      </trkpt>
      <trkpt lat="42.653260" lon="1.896336">
        <ele>2430.2</ele>
        <time>2018-10-21T10:07:13Z</time>
      </trkpt>
      <trkpt lat="42.653217" lon="1.896218">
        <ele>2429.3</ele>
        <time>2018-10-21T10:07:23Z</time>
      </trkpt>
      <trkpt lat="42.653166" lon="1.896111">
        <ele>2428.6</ele>
        <time>2018-10-21T10:07:32Z</time>
      </trkpt>
      <trkpt lat="42.653095" lon="1.896035">
        <ele>2427.0</ele>
        <time>2018-10-21T10:07:41Z</time>
      </trkpt>
      <trkpt lat="42.653017" lon="1.895961">
        <ele>2424.5</ele>
        <time>2018-10-21T10:07:50Z</time>
      </trkpt>
      <trkpt lat="42.652949" lon="1.895866">
        <ele>2422.3</ele>
        <time>2018-10-21T10:08:00Z</time>
      </trkpt>
      <trkpt lat="42.652869" lon="1.895792">
        <ele>2420.2</ele>
        <time>2018-10-21T10:08:10Z</time>
      </trkpt>
      <trkpt lat="42.652796" lon="1.895738">
        <ele>2418.2</ele>
        <time>2018-10-21T10:08:18Z</time>
      </trkpt>
      <trkpt lat="42.652716" lon="1.895655">
        <ele>2417.8</ele>
        <time>2018-10-21T10:08:27Z</time>
      </trkpt>
      <trkpt lat="42.652626" lon="1.895621">
        <ele>2417.9</ele>
        <time>2018-10-21T10:08:36Z</time>
      </trkpt>
      <trkpt lat="42.652551" lon="1.895562">
        <ele>2418.2</ele>
        <time>2018-10-21T10:08:46Z</time>
      </trkpt>
      <trkpt lat="42.652462" lon="1.895537">
        <ele>2421.2</ele>
        <time>2018-10-21T10:09:01Z</time>
      </trkpt>
      <trkpt lat="42.652380" lon="1.895507">
        <ele>2423.2</ele>
        <time>2018-10-21T10:09:12Z</time>
      </trkpt>
      <trkpt lat="42.652300" lon="1.895468">
        <ele>2423.4</ele>
        <time>2018-10-21T10:09:23Z</time>
      </trkpt>
      <trkpt lat="42.652244" lon="1.895542">
        <ele>2423.0</ele>
        <time>2018-10-21T10:09:37Z</time>
      </trkpt>
      <trkpt lat="42.652173" lon="1.895528">
        <ele>2418.5</ele>
        <time>2018-10-21T10:09:59Z</time>
      </trkpt>
      <trkpt lat="42.652098" lon="1.895523">
        <ele>2414.9</ele>
        <time>2018-10-21T10:10:16Z</time>
      </trkpt>
      <trkpt lat="42.652059" lon="1.895457">
        <ele>2410.2</ele>
        <time>2018-10-21T10:10:34Z</time>
      </trkpt>
      <trkpt lat="42.652046" lon="1.895342">
        <ele>2407.4</ele>
        <time>2018-10-21T10:10:47Z</time>
      </trkpt>
      <trkpt lat="42.651996" lon="1.895305">
        <ele>2403.6</ele>
        <time>2018-10-21T10:11:03Z</time>
      </trkpt>
      <trkpt lat="42.651905" lon="1.895288">
        <ele>2399.7</ele>
        <time>2018-10-21T10:11:16Z</time>
      </trkpt>
      <trkpt lat="42.651807" lon="1.895307">
        <ele>2396.5</ele>
        <time>2018-10-21T10:11:27Z</time>
      </trkpt>
      <trkpt lat="42.651704" lon="1.895339">
        <ele>2392.0</ele>
        <time>2018-10-21T10:12:49Z</time>
      </trkpt>
      <trkpt lat="42.651618" lon="1.895338">
        <ele>2390.6</ele>
        <time>2018-10-21T10:13:01Z</time>
      </trkpt>
      <trkpt lat="42.651569" lon="1.895230">
        <ele>2387.6</ele>
        <time>2018-10-21T10:13:12Z</time>
      </trkpt>
      <trkpt lat="42.651497" lon="1.895140">
        <ele>2384.2</ele>
        <time>2018-10-21T10:13:24Z</time>
      </trkpt>
      <trkpt lat="42.651424" lon="1.895055">
        <ele>2382.0</ele>
        <time>2018-10-21T10:13:35Z</time>
      </trkpt>
      <trkpt lat="42.651327" lon="1.895083">
        <ele>2379.9</ele>
        <time>2018-10-21T10:13:45Z</time>
      </trkpt>
      <trkpt lat="42.651235" lon="1.895092">
        <ele>2378.6</ele>
        <time>2018-10-21T10:13:54Z</time>
      </trkpt>
      <trkpt lat="42.651144" lon="1.895085">
        <ele>2377.3</ele>
        <time>2018-10-21T10:14:03Z</time>
      </trkpt>
      <trkpt lat="42.651051" lon="1.895055">
        <ele>2375.2</ele>
        <time>2018-10-21T10:14:12Z</time>
      </trkpt>
      <trkpt lat="42.650961" lon="1.895011">
        <ele>2373.4</ele>
        <time>2018-10-21T10:14:20Z</time>
      </trkpt>
      <trkpt lat="42.650867" lon="1.894973">
        <ele>2372.4</ele>
        <time>2018-10-21T10:14:29Z</time>
      </trkpt>
      <trkpt lat="42.650767" lon="1.894944">
        <ele>2371.8</ele>
        <time>2018-10-21T10:14:37Z</time>
      </trkpt>
      <trkpt lat="42.650677" lon="1.894896">
        <ele>2371.2</ele>
        <time>2018-10-21T10:14:45Z</time>
      </trkpt>
      <trkpt lat="42.650588" lon="1.894883">
        <ele>2370.7</ele>
        <time>2018-10-21T10:14:55Z</time>
      </trkpt>
      <trkpt lat="42.650484" lon="1.894867">
        <ele>2370.4</ele>
        <time>2018-10-21T10:15:03Z</time>
      </trkpt>
      <trkpt lat="42.650392" lon="1.894878">
        <ele>2370.2</ele>
        <time>2018-10-21T10:15:12Z</time>
      </trkpt>
      <trkpt lat="42.650296" lon="1.894880">
        <ele>2370.6</ele>
        <time>2018-10-21T10:15:21Z</time>
      </trkpt>
      <trkpt lat="42.650209" lon="1.894866">
        <ele>2371.1</ele>
        <time>2018-10-21T10:15:30Z</time>
      </trkpt>
      <trkpt lat="42.650110" lon="1.894865">
        <ele>2371.8</ele>
        <time>2018-10-21T10:15:39Z</time>
      </trkpt>
      <trkpt lat="42.650022" lon="1.894851">
        <ele>2372.5</ele>
        <time>2018-10-21T10:15:48Z</time>
      </trkpt>
      <trkpt lat="42.649917" lon="1.894854">
        <ele>2373.0</ele>
        <time>2018-10-21T10:15:57Z</time>
      </trkpt>
      <trkpt lat="42.649822" lon="1.894885">
        <ele>2372.6</ele>
        <time>2018-10-21T10:16:05Z</time>
      </trkpt>
      <trkpt lat="42.649722" lon="1.894916">
        <ele>2373.6</ele>
        <time>2018-10-21T10:16:15Z</time>
      </trkpt>
      <trkpt lat="42.649639" lon="1.894969">
        <ele>2375.7</ele>
        <time>2018-10-21T10:16:26Z</time>
      </trkpt>
      <trkpt lat="42.649581" lon="1.895061">
        <ele>2377.9</ele>
        <time>2018-10-21T10:16:39Z</time>
      </trkpt>
      <trkpt lat="42.649517" lon="1.895152">
        <ele>2381.4</ele>
        <time>2018-10-21T10:16:55Z</time>
      </trkpt>
      <trkpt lat="42.649441" lon="1.895238">
        <ele>2384.4</ele>
        <time>2018-10-21T10:17:10Z</time>
      </trkpt>
      <trkpt lat="42.649368" lon="1.895315">
        <ele>2387.1</ele>
        <time>2018-10-21T10:17:24Z</time>
      </trkpt>
      <trkpt lat="42.649295" lon="1.895368">
        <ele>2390.1</ele>
        <time>2018-10-21T10:17:40Z</time>
      </trkpt>
      <trkpt lat="42.649218" lon="1.895409">
        <ele>2393.5</ele>
        <time>2018-10-21T10:17:57Z</time>
      </trkpt>
      <trkpt lat="42.649165" lon="1.895441">
        <ele>2397.9</ele>
        <time>2018-10-21T10:18:26Z</time>
      </trkpt>
      <trkpt lat="42.649097" lon="1.895443">
        <ele>2401.1</ele>
        <time>2018-10-21T10:18:49Z</time>
      </trkpt>
      <trkpt lat="42.649021" lon="1.895420">
        <ele>2404.4</ele>
        <time>2018-10-21T10:19:07Z</time>
      </trkpt>
      <trkpt lat="42.648943" lon="1.895422">
        <ele>2408.1</ele>
        <time>2018-10-21T10:19:27Z</time>
      </trkpt>
      <trkpt lat="42.648916" lon="1.895544">
        <ele>2411.3</ele>
        <time>2018-10-21T10:19:43Z</time>
      </trkpt>
      <trkpt lat="42.648832" lon="1.895583">
        <ele>2415.0</ele>
        <time>2018-10-21T10:20:01Z</time>
      </trkpt>
      <trkpt lat="42.648745" lon="1.895587">
        <ele>2418.0</ele>
        <time>2018-10-21T10:20:18Z</time>
      </trkpt>
      <trkpt lat="42.648663" lon="1.895582">
        <ele>2421.9</ele>
        <time>2018-10-21T10:20:37Z</time>
      </trkpt>
      <trkpt lat="42.648563" lon="1.895555">
        <ele>2425.3</ele>
        <time>2018-10-21T10:20:58Z</time>
      </trkpt>
      <trkpt lat="42.648463" lon="1.895554">
        <ele>2428.6</ele>
        <time>2018-10-21T10:21:21Z</time>
      </trkpt>
      <trkpt lat="42.648351" lon="1.895539">
        <ele>2431.9</ele>
        <time>2018-10-21T10:21:42Z</time>
      </trkpt>
      <trkpt lat="42.648258" lon="1.895602">
        <ele>2433.9</ele>
        <time>2018-10-21T10:22:00Z</time>
      </trkpt>
      <trkpt lat="42.648162" lon="1.895625">
        <ele>2436.9</ele>
        <time>2018-10-21T10:22:18Z</time>
      </trkpt>
      <trkpt lat="42.648079" lon="1.895628">
        <ele>2438.8</ele>
        <time>2018-10-21T10:22:29Z</time>
      </trkpt>
      <trkpt lat="42.647991" lon="1.895615">
        <ele>2443.0</ele>
        <time>2018-10-21T10:22:43Z</time>
      </trkpt>
      <trkpt lat="42.647899" lon="1.895617">
        <ele>2444.7</ele>
        <time>2018-10-21T10:22:53Z</time>
      </trkpt>
      <trkpt lat="42.647789" lon="1.895533">
        <ele>2448.7</ele>
        <time>2018-10-21T10:23:33Z</time>
      </trkpt>
      <trkpt lat="42.647763" lon="1.895410">
        <ele>2451.8</ele>
        <time>2018-10-21T10:23:46Z</time>
      </trkpt>
      <trkpt lat="42.647677" lon="1.895353">
        <ele>2454.4</ele>
        <time>2018-10-21T10:24:00Z</time>
      </trkpt>
      <trkpt lat="42.647647" lon="1.895229">
        <ele>2457.3</ele>
        <time>2018-10-21T10:24:14Z</time>
      </trkpt>
      <trkpt lat="42.647620" lon="1.895104">
        <ele>2460.2</ele>
        <time>2018-10-21T10:24:28Z</time>
      </trkpt>
      <trkpt lat="42.647557" lon="1.895016">
        <ele>2464.1</ele>
        <time>2018-10-21T10:24:43Z</time>
      </trkpt>
      <trkpt lat="42.647530" lon="1.894905">
        <ele>2468.2</ele>
        <time>2018-10-21T10:24:58Z</time>
      </trkpt>
      <trkpt lat="42.647493" lon="1.894829">
        <ele>2472.9</ele>
        <time>2018-10-21T10:25:15Z</time>
      </trkpt>
      <trkpt lat="42.647447" lon="1.894807">
        <ele>2473.5</ele>
        <time>2018-10-21T10:25:53Z</time>
      </trkpt>
      <trkpt lat="42.647350" lon="1.894776">
        <ele>2473.1</ele>
        <time>2018-10-21T10:26:05Z</time>
      </trkpt>
      <trkpt lat="42.647259" lon="1.894767">
        <ele>2472.3</ele>
        <time>2018-10-21T10:26:15Z</time>
      </trkpt>
      <trkpt lat="42.647164" lon="1.894759">
        <ele>2471.7</ele>
        <time>2018-10-21T10:26:27Z</time>
      </trkpt>
      <trkpt lat="42.647068" lon="1.894754">
        <ele>2470.5</ele>
        <time>2018-10-21T10:26:40Z</time>
      </trkpt>
      <trkpt lat="42.646984" lon="1.894766">
        <ele>2469.3</ele>
        <time>2018-10-21T10:26:52Z</time>
      </trkpt>
      <trkpt lat="42.646900" lon="1.894785">
        <ele>2467.7</ele>
        <time>2018-10-21T10:27:03Z</time>
      </trkpt>
      <trkpt lat="42.646803" lon="1.894796">
        <ele>2465.9</ele>
        <time>2018-10-21T10:27:14Z</time>
      </trkpt>
      <trkpt lat="42.646712" lon="1.894749">
        <ele>2464.8</ele>
        <time>2018-10-21T10:27:29Z</time>
      </trkpt>
      <trkpt lat="42.646619" lon="1.894694">
        <ele>2464.6</ele>
        <time>2018-10-21T10:27:43Z</time>
      </trkpt>
      <trkpt lat="42.646533" lon="1.894627">
        <ele>2464.4</ele>
        <time>2018-10-21T10:27:57Z</time>
      </trkpt>
      <trkpt lat="42.646443" lon="1.894572">
        <ele>2466.0</ele>
        <time>2018-10-21T10:28:13Z</time>
      </trkpt>
      <trkpt lat="42.646362" lon="1.894542">
        <ele>2467.5</ele>
        <time>2018-10-21T10:28:28Z</time>
      </trkpt>
      <trkpt lat="42.646263" lon="1.894467">
        <ele>2469.4</ele>
        <time>2018-10-21T10:28:44Z</time>
      </trkpt>
      <trkpt lat="42.646163" lon="1.894435">
        <ele>2470.3</ele>
        <time>2018-10-21T10:28:56Z</time>
      </trkpt>
      <trkpt lat="42.646065" lon="1.894394">
        <ele>2472.1</ele>
        <time>2018-10-21T10:29:12Z</time>
      </trkpt>
      <trkpt lat="42.645961" lon="1.894359">
        <ele>2473.0</ele>
        <time>2018-10-21T10:29:27Z</time>
      </trkpt>
      <trkpt lat="42.645871" lon="1.894355">
        <ele>2474.4</ele>
        <time>2018-10-21T10:29:41Z</time>
      </trkpt>
      <trkpt lat="42.645817" lon="1.894280">
        <ele>2476.6</ele>
        <time>2018-10-21T10:30:04Z</time>
      </trkpt>
      <trkpt lat="42.645742" lon="1.894272">
        <ele>2479.9</ele>
        <time>2018-10-21T10:30:51Z</time>
      </trkpt>
      <trkpt lat="42.645749" lon="1.894273">
        <ele>2479.5</ele>
        <time>2018-10-21T10:35:15Z</time>
      </trkpt>
      <trkpt lat="42.645686" lon="1.894257">
        <ele>2480.3</ele>
        <time>2018-10-21T10:38:05Z</time>
      </trkpt>
      <trkpt lat="42.645629" lon="1.894208">
        <ele>2476.2</ele>
        <time>2018-10-21T10:38:31Z</time>
      </trkpt>
      <trkpt lat="42.645597" lon="1.894111">
        <ele>2473.1</ele>
        <time>2018-10-21T10:38:47Z</time>
      </trkpt>
      <trkpt lat="42.645523" lon="1.894081">
        <ele>2469.9</ele>
        <time>2018-10-21T10:39:04Z</time>
      </trkpt>
      <trkpt lat="42.645451" lon="1.893998">
        <ele>2467.3</ele>
        <time>2018-10-21T10:39:32Z</time>
      </trkpt>
      <trkpt lat="42.645359" lon="1.893953">
        <ele>2465.1</ele>
        <time>2018-10-21T10:39:49Z</time>
      </trkpt>
      <trkpt lat="42.645312" lon="1.893855">
        <ele>2464.1</ele>
        <time>2018-10-21T10:40:12Z</time>
      </trkpt>
      <trkpt lat="42.645261" lon="1.893837">
        <ele>2463.8</ele>
        <time>2018-10-21T10:40:49Z</time>
      </trkpt>
      <trkpt lat="42.645215" lon="1.893764">
        <ele>2461.8</ele>
        <time>2018-10-21T10:41:03Z</time>
      </trkpt>
      <trkpt lat="42.645156" lon="1.893716">
        <ele>2458.2</ele>
        <time>2018-10-21T10:41:43Z</time>
      </trkpt>
      <trkpt lat="42.645125" lon="1.893619">
        <ele>2456.8</ele>
        <time>2018-10-21T10:42:05Z</time>
      </trkpt>
      <trkpt lat="42.645050" lon="1.893559">
        <ele>2453.5</ele>
        <time>2018-10-21T10:43:08Z</time>
      </trkpt>
      <trkpt lat="42.644979" lon="1.893496">
        <ele>2451.3</ele>
        <time>2018-10-21T10:43:25Z</time>
      </trkpt>
      <trkpt lat="42.644913" lon="1.893410">
        <ele>2451.2</ele>
        <time>2018-10-21T10:43:48Z</time>
      </trkpt>
      <trkpt lat="42.644819" lon="1.893380">
        <ele>2448.6</ele>
        <time>2018-10-21T10:44:07Z</time>
      </trkpt>
      <trkpt lat="42.644760" lon="1.893307">
        <ele>2443.4</ele>
        <time>2018-10-21T10:45:09Z</time>
      </trkpt>
      <trkpt lat="42.644693" lon="1.893210">
        <ele>2440.4</ele>
        <time>2018-10-21T10:45:26Z</time>
      </trkpt>
      <trkpt lat="42.644621" lon="1.893149">
        <ele>2437.1</ele>
        <time>2018-10-21T10:45:43Z</time>
      </trkpt>
      <trkpt lat="42.644578" lon="1.893041">
        <ele>2432.3</ele>
        <time>2018-10-21T10:46:44Z</time>
      </trkpt>
      <trkpt lat="42.644515" lon="1.892957">
        <ele>2430.6</ele>
        <time>2018-10-21T10:46:58Z</time>
      </trkpt>
      <trkpt lat="42.644455" lon="1.892877">
        <ele>2428.0</ele>
        <time>2018-10-21T10:47:10Z</time>
      </trkpt>
      <trkpt lat="42.644382" lon="1.892797">
        <ele>2426.6</ele>
        <time>2018-10-21T10:47:21Z</time>
      </trkpt>
      <trkpt lat="42.644302" lon="1.892718">
        <ele>2426.1</ele>
        <time>2018-10-21T10:47:33Z</time>
      </trkpt>
      <trkpt lat="42.644229" lon="1.892643">
        <ele>2424.8</ele>
        <time>2018-10-21T10:47:55Z</time>
      </trkpt>
      <trkpt lat="42.644163" lon="1.892590">
        <ele>2425.2</ele>
        <time>2018-10-21T10:48:09Z</time>
      </trkpt>
      <trkpt lat="42.644100" lon="1.892498">
        <ele>2425.2</ele>
        <time>2018-10-21T10:48:21Z</time>
      </trkpt>
      <trkpt lat="42.644023" lon="1.892409">
        <ele>2425.7</ele>
        <time>2018-10-21T10:48:33Z</time>
      </trkpt>
      <trkpt lat="42.643947" lon="1.892334">
        <ele>2425.9</ele>
        <time>2018-10-21T10:48:52Z</time>
      </trkpt>
      <trkpt lat="42.643850" lon="1.892284">
        <ele>2426.9</ele>
        <time>2018-10-21T10:49:06Z</time>
      </trkpt>
      <trkpt lat="42.643763" lon="1.892237">
        <ele>2426.2</ele>
        <time>2018-10-21T10:49:24Z</time>
      </trkpt>
      <trkpt lat="42.643704" lon="1.892165">
        <ele>2424.6</ele>
        <time>2018-10-21T10:49:43Z</time>
      </trkpt>
      <trkpt lat="42.643617" lon="1.892118">
        <ele>2423.8</ele>
        <time>2018-10-21T10:49:59Z</time>
      </trkpt>
      <trkpt lat="42.643560" lon="1.892019">
        <ele>2422.8</ele>
        <time>2018-10-21T10:50:24Z</time>
      </trkpt>
      <trkpt lat="42.643506" lon="1.891980">
        <ele>2420.5</ele>
        <time>2018-10-21T10:50:50Z</time>
      </trkpt>
      <trkpt lat="42.643472" lon="1.891931">
        <ele>2419.6</ele>
        <time>2018-10-21T10:51:10Z</time>
      </trkpt>
      <trkpt lat="42.643391" lon="1.891884">
        <ele>2420.0</ele>
        <time>2018-10-21T10:51:37Z</time>
      </trkpt>
      <trkpt lat="42.643311" lon="1.891832">
        <ele>2417.9</ele>
        <time>2018-10-21T10:52:11Z</time>
      </trkpt>
      <trkpt lat="42.643239" lon="1.891739">
        <ele>2420.8</ele>
        <time>2018-10-21T10:52:35Z</time>
      </trkpt>
      <trkpt lat="42.643139" lon="1.891686">
        <ele>2421.1</ele>
        <time>2018-10-21T10:53:00Z</time>
      </trkpt>
      <trkpt lat="42.643065" lon="1.891625">
        <ele>2422.5</ele>
        <time>2018-10-21T10:53:14Z</time>
      </trkpt>
      <trkpt lat="42.643007" lon="1.891538">
        <ele>2421.8</ele>
        <time>2018-10-21T10:53:30Z</time>
      </trkpt>
      <trkpt lat="42.642936" lon="1.891466">
        <ele>2422.9</ele>
        <time>2018-10-21T10:54:36Z</time>
      </trkpt>
      <trkpt lat="42.642861" lon="1.891379">
        <ele>2422.4</ele>
        <time>2018-10-21T10:55:25Z</time>
      </trkpt>
      <trkpt lat="42.642772" lon="1.891334">
        <ele>2424.4</ele>
        <time>2018-10-21T10:55:50Z</time>
      </trkpt>
      <trkpt lat="42.642699" lon="1.891257">
        <ele>2425.9</ele>
        <time>2018-10-21T10:56:10Z</time>
      </trkpt>
      <trkpt lat="42.642628" lon="1.891238">
        <ele>2423.1</ele>
        <time>2018-10-21T10:56:51Z</time>
      </trkpt>
      <trkpt lat="42.642554" lon="1.891168">
        <ele>2423.6</ele>
        <time>2018-10-21T10:58:47Z</time>
      </trkpt>
      <trkpt lat="42.642510" lon="1.891171">
        <ele>2424.5</ele>
        <time>2018-10-21T10:59:36Z</time>
      </trkpt>
      <trkpt lat="42.642514" lon="1.891159">
        <ele>2424.4</ele>
        <time>2018-10-21T11:00:54Z</time>
      </trkpt>
      <trkpt lat="42.642430" lon="1.891161">
        <ele>2420.8</ele>
        <time>2018-10-21T11:01:16Z</time>
      </trkpt>
      <trkpt lat="42.642397" lon="1.891068">
        <ele>2422.9</ele>
        <time>2018-10-21T11:05:34Z</time>
      </trkpt>
      <trkpt lat="42.642345" lon="1.890978">
        <ele>2428.7</ele>
        <time>2018-10-21T11:06:03Z</time>
      </trkpt>
      <trkpt lat="42.642258" lon="1.890963">
        <ele>2434.0</ele>
        <time>2018-10-21T11:06:31Z</time>
      </trkpt>
      <trkpt lat="42.642270" lon="1.890926">
        <ele>2432.7</ele>
        <time>2018-10-21T11:13:31Z</time>
      </trkpt>
      <trkpt lat="42.642182" lon="1.890885">
        <ele>2429.1</ele>
        <time>2018-10-21T11:16:19Z</time>
      </trkpt>
      <trkpt lat="42.642115" lon="1.890841">
        <ele>2431.0</ele>
        <time>2018-10-21T11:16:40Z</time>
      </trkpt>
      <trkpt lat="42.642082" lon="1.890739">
        <ele>2433.7</ele>
        <time>2018-10-21T11:16:58Z</time>
      </trkpt>
      <trkpt lat="42.642055" lon="1.890663">
        <ele>2438.1</ele>
        <time>2018-10-21T11:17:21Z</time>
      </trkpt>
      <trkpt lat="42.641976" lon="1.890673">
        <ele>2439.7</ele>
        <time>2018-10-21T11:17:43Z</time>
      </trkpt>
      <trkpt lat="42.641955" lon="1.890576">
        <ele>2443.0</ele>
        <time>2018-10-21T11:18:48Z</time>
      </trkpt>
      <trkpt lat="42.641950" lon="1.890475">
        <ele>2447.9</ele>
        <time>2018-10-21T11:19:18Z</time>
      </trkpt>
      <trkpt lat="42.641919" lon="1.890441">
        <ele>2453.0</ele>
        <time>2018-10-21T11:19:40Z</time>
      </trkpt>
      <trkpt lat="42.641877" lon="1.890397">
        <ele>2458.1</ele>
        <time>2018-10-21T11:20:10Z</time>
      </trkpt>
      <trkpt lat="42.641832" lon="1.890328">
        <ele>2461.9</ele>
        <time>2018-10-21T11:22:37Z</time>
      </trkpt>
      <trkpt lat="42.641773" lon="1.890290">
        <ele>2454.6</ele>
        <time>2018-10-21T14:54:14Z</time>
      </trkpt>
      <trkpt lat="42.641763" lon="1.890198">
        <ele>2454.3</ele>
        <time>2018-10-21T14:55:09Z</time>
      </trkpt>
      <trkpt lat="42.641724" lon="1.890064">
        <ele>2452.5</ele>
        <time>2018-10-21T14:55:28Z</time>
      </trkpt>
      <trkpt lat="42.641643" lon="1.889998">
        <ele>2449.9</ele>
        <time>2018-10-21T14:55:38Z</time>
      </trkpt>
      <trkpt lat="42.641681" lon="1.889623">
        <ele>2440.8</ele>
        <time>2018-10-21T14:56:54Z</time>
      </trkpt>
      <trkpt lat="42.641705" lon="1.889497">
        <ele>2440.6</ele>
        <time>2018-10-21T14:57:13Z</time>
      </trkpt>
      <trkpt lat="42.641759" lon="1.889367">
        <ele>2439.5</ele>
        <time>2018-10-21T14:57:25Z</time>
      </trkpt>
      <trkpt lat="42.641686" lon="1.889219">
        <ele>2385.7</ele>
        <time>2018-10-21T14:57:35Z</time>
      </trkpt>
      <trkpt lat="42.641584" lon="1.889037">
        <ele>2389.4</ele>
        <time>2018-10-21T15:00:11Z</time>
      </trkpt>
      <trkpt lat="42.641479" lon="1.888930">
        <ele>2392.6</ele>
        <time>2018-10-21T15:00:39Z</time>
      </trkpt>
      <trkpt lat="42.641447" lon="1.888736">
        <ele>2390.9</ele>
        <time>2018-10-21T15:00:50Z</time>
      </trkpt>
      <trkpt lat="42.641444" lon="1.888594">
        <ele>2414.8</ele>
        <time>2018-10-21T15:01:07Z</time>
      </trkpt>
      <trkpt lat="42.641352" lon="1.888510">
        <ele>2413.8</ele>
        <time>2018-10-21T15:01:23Z</time>
      </trkpt>
      <trkpt lat="42.641290" lon="1.888384">
        <ele>2410.3</ele>
        <time>2018-10-21T15:01:34Z</time>
      </trkpt>
      <trkpt lat="42.641225" lon="1.888298">
        <ele>2407.1</ele>
        <time>2018-10-21T15:01:44Z</time>
      </trkpt>
      <trkpt lat="42.641183" lon="1.888198">
        <ele>2402.5</ele>
        <time>2018-10-21T15:01:56Z</time>
      </trkpt>
      <trkpt lat="42.641135" lon="1.888072">
        <ele>2397.6</ele>
        <time>2018-10-21T15:02:09Z</time>
      </trkpt>
      <trkpt lat="42.641034" lon="1.888019">
        <ele>2394.1</ele>
        <time>2018-10-21T15:02:18Z</time>
      </trkpt>
      <trkpt lat="42.640958" lon="1.887947">
        <ele>2391.8</ele>
        <time>2018-10-21T15:02:26Z</time>
      </trkpt>
      <trkpt lat="42.640894" lon="1.887847">
        <ele>2390.0</ele>
        <time>2018-10-21T15:02:33Z</time>
      </trkpt>
      <trkpt lat="42.640819" lon="1.887768">
        <ele>2385.8</ele>
        <time>2018-10-21T15:02:40Z</time>
      </trkpt>
      <trkpt lat="42.640752" lon="1.887681">
        <ele>2382.5</ele>
        <time>2018-10-21T15:02:50Z</time>
      </trkpt>
      <trkpt lat="42.640695" lon="1.887611">
        <ele>2378.2</ele>
        <time>2018-10-21T15:03:09Z</time>
      </trkpt>
      <trkpt lat="42.640612" lon="1.887518">
        <ele>2376.9</ele>
        <time>2018-10-21T15:03:16Z</time>
      </trkpt>
      <trkpt lat="42.640533" lon="1.887471">
        <ele>2375.1</ele>
        <time>2018-10-21T15:03:23Z</time>
      </trkpt>
      <trkpt lat="42.640512" lon="1.887360">
        <ele>2369.6</ele>
        <time>2018-10-21T15:03:38Z</time>
      </trkpt>
      <trkpt lat="42.640452" lon="1.887244">
        <ele>2364.0</ele>
        <time>2018-10-21T15:03:50Z</time>
      </trkpt>
      <trkpt lat="42.640390" lon="1.887162">
        <ele>2357.4</ele>
        <time>2018-10-21T15:04:10Z</time>
      </trkpt>
      <trkpt lat="42.640323" lon="1.887050">
        <ele>2353.1</ele>
        <time>2018-10-21T15:04:22Z</time>
      </trkpt>
      <trkpt lat="42.640249" lon="1.886967">
        <ele>2348.9</ele>
        <time>2018-10-21T15:04:31Z</time>
      </trkpt>
      <trkpt lat="42.640178" lon="1.886901">
        <ele>2344.8</ele>
        <time>2018-10-21T15:04:41Z</time>
      </trkpt>
      <trkpt lat="42.640111" lon="1.886826">
        <ele>2340.3</ele>
        <time>2018-10-21T15:04:51Z</time>
      </trkpt>
      <trkpt lat="42.640078" lon="1.886710">
        <ele>2335.1</ele>
        <time>2018-10-21T15:05:06Z</time>
      </trkpt>
      <trkpt lat="42.640007" lon="1.886629">
        <ele>2330.0</ele>
        <time>2018-10-21T15:05:17Z</time>
      </trkpt>
      <trkpt lat="42.639953" lon="1.886546">
        <ele>2325.2</ele>
        <time>2018-10-21T15:05:28Z</time>
      </trkpt>
      <trkpt lat="42.639869" lon="1.886519">
        <ele>2321.3</ele>
        <time>2018-10-21T15:05:39Z</time>
      </trkpt>
      <trkpt lat="42.639773" lon="1.886483">
        <ele>2316.4</ele>
        <time>2018-10-21T15:05:50Z</time>
      </trkpt>
      <trkpt lat="42.639667" lon="1.886437">
        <ele>2312.4</ele>
        <time>2018-10-21T15:06:00Z</time>
      </trkpt>
      <trkpt lat="42.639574" lon="1.886399">
        <ele>2309.2</ele>
        <time>2018-10-21T15:06:09Z</time>
      </trkpt>
      <trkpt lat="42.639508" lon="1.886315">
        <ele>2304.3</ele>
        <time>2018-10-21T15:06:21Z</time>
      </trkpt>
      <trkpt lat="42.639432" lon="1.886241">
        <ele>2299.9</ele>
        <time>2018-10-21T15:06:31Z</time>
      </trkpt>
      <trkpt lat="42.639355" lon="1.886172">
        <ele>2294.4</ele>
        <time>2018-10-21T15:06:42Z</time>
      </trkpt>
      <trkpt lat="42.639289" lon="1.886076">
        <ele>2289.1</ele>
        <time>2018-10-21T15:06:53Z</time>
      </trkpt>
      <trkpt lat="42.639214" lon="1.886024">
        <ele>2283.8</ele>
        <time>2018-10-21T15:07:03Z</time>
      </trkpt>
      <trkpt lat="42.639123" lon="1.885965">
        <ele>2278.9</ele>
        <time>2018-10-21T15:07:14Z</time>
      </trkpt>
      <trkpt lat="42.639086" lon="1.885856">
        <ele>2274.4</ele>
        <time>2018-10-21T15:07:29Z</time>
      </trkpt>
      <trkpt lat="42.639002" lon="1.885799">
        <ele>2269.9</ele>
        <time>2018-10-21T15:07:43Z</time>
      </trkpt>
      <trkpt lat="42.638938" lon="1.885715">
        <ele>2265.6</ele>
        <time>2018-10-21T15:07:52Z</time>
      </trkpt>
      <trkpt lat="42.638873" lon="1.885641">
        <ele>2260.6</ele>
        <time>2018-10-21T15:08:02Z</time>
      </trkpt>
      <trkpt lat="42.638782" lon="1.885603">
        <ele>2255.8</ele>
        <time>2018-10-21T15:08:12Z</time>
      </trkpt>
      <trkpt lat="42.638716" lon="1.885540">
        <ele>2250.6</ele>
        <time>2018-10-21T15:08:21Z</time>
      </trkpt>
      <trkpt lat="42.638633" lon="1.885452">
        <ele>2247.4</ele>
        <time>2018-10-21T15:08:29Z</time>
      </trkpt>
      <trkpt lat="42.638627" lon="1.885300">
        <ele>2242.5</ele>
        <time>2018-10-21T15:08:40Z</time>
      </trkpt>
      <trkpt lat="42.638705" lon="1.885175">
        <ele>2237.3</ele>
        <time>2018-10-21T15:08:54Z</time>
      </trkpt>
      <trkpt lat="42.638824" lon="1.885150">
        <ele>2234.3</ele>
        <time>2018-10-21T15:09:05Z</time>
      </trkpt>
      <trkpt lat="42.638911" lon="1.885095">
        <ele>2231.0</ele>
        <time>2018-10-21T15:09:14Z</time>
      </trkpt>
      <trkpt lat="42.639003" lon="1.885046">
        <ele>2227.0</ele>
        <time>2018-10-21T15:09:23Z</time>
      </trkpt>
      <trkpt lat="42.638960" lon="1.884917">
        <ele>2220.9</ele>
        <time>2018-10-21T15:09:38Z</time>
      </trkpt>
      <trkpt lat="42.639032" lon="1.884809">
        <ele>2215.7</ele>
        <time>2018-10-21T15:09:49Z</time>
      </trkpt>
      <trkpt lat="42.639111" lon="1.884714">
        <ele>2211.0</ele>
        <time>2018-10-21T15:09:57Z</time>
      </trkpt>
      <trkpt lat="42.639140" lon="1.884627">
        <ele>2206.4</ele>
        <time>2018-10-21T15:10:07Z</time>
      </trkpt>
      <trkpt lat="42.639215" lon="1.884532">
        <ele>2203.3</ele>
        <time>2018-10-21T15:10:14Z</time>
      </trkpt>
      <trkpt lat="42.639172" lon="1.884454">
        <ele>2199.0</ele>
        <time>2018-10-21T15:10:22Z</time>
      </trkpt>
      <trkpt lat="42.639217" lon="1.884354">
        <ele>2194.5</ele>
        <time>2018-10-21T15:10:32Z</time>
      </trkpt>
      <trkpt lat="42.639262" lon="1.884302">
        <ele>2190.7</ele>
        <time>2018-10-21T15:10:40Z</time>
      </trkpt>
      <trkpt lat="42.639174" lon="1.884209">
        <ele>2186.0</ele>
        <time>2018-10-21T15:10:52Z</time>
      </trkpt>
      <trkpt lat="42.639179" lon="1.884072">
        <ele>2180.8</ele>
        <time>2018-10-21T15:11:05Z</time>
      </trkpt>
      <trkpt lat="42.639292" lon="1.884014">
        <ele>2176.3</ele>
        <time>2018-10-21T15:11:16Z</time>
      </trkpt>
      <trkpt lat="42.639363" lon="1.883959">
        <ele>2169.8</ele>
        <time>2018-10-21T15:11:30Z</time>
      </trkpt>
      <trkpt lat="42.639463" lon="1.883880">
        <ele>2166.9</ele>
        <time>2018-10-21T15:11:37Z</time>
      </trkpt>
      <trkpt lat="42.639508" lon="1.883826">
        <ele>2161.2</ele>
        <time>2018-10-21T15:11:45Z</time>
      </trkpt>
      <trkpt lat="42.639474" lon="1.883750">
        <ele>2156.8</ele>
        <time>2018-10-21T15:11:54Z</time>
      </trkpt>
      <trkpt lat="42.639550" lon="1.883679">
        <ele>2152.3</ele>
        <time>2018-10-21T15:12:05Z</time>
      </trkpt>
      <trkpt lat="42.639619" lon="1.883631">
        <ele>2147.1</ele>
        <time>2018-10-21T15:12:15Z</time>
      </trkpt>
      <trkpt lat="42.639531" lon="1.883542">
        <ele>2143.5</ele>
        <time>2018-10-21T15:12:25Z</time>
      </trkpt>
      <trkpt lat="42.639548" lon="1.883456">
        <ele>2139.2</ele>
        <time>2018-10-21T15:12:37Z</time>
      </trkpt>
      <trkpt lat="42.639664" lon="1.883443">
        <ele>2135.7</ele>
        <time>2018-10-21T15:12:45Z</time>
      </trkpt>
      <trkpt lat="42.639776" lon="1.883436">
        <ele>2132.7</ele>
        <time>2018-10-21T15:12:50Z</time>
      </trkpt>
      <trkpt lat="42.639872" lon="1.883411">
        <ele>2130.0</ele>
        <time>2018-10-21T15:12:55Z</time>
      </trkpt>
      <trkpt lat="42.639977" lon="1.883362">
        <ele>2125.6</ele>
        <time>2018-10-21T15:13:01Z</time>
      </trkpt>
      <trkpt lat="42.640069" lon="1.883301">
        <ele>2121.7</ele>
        <time>2018-10-21T15:13:07Z</time>
      </trkpt>
      <trkpt lat="42.640143" lon="1.883247">
        <ele>2116.3</ele>
        <time>2018-10-21T15:13:17Z</time>
      </trkpt>
      <trkpt lat="42.640267" lon="1.883214">
        <ele>2111.7</ele>
        <time>2018-10-21T15:13:28Z</time>
      </trkpt>
      <trkpt lat="42.640374" lon="1.883158">
        <ele>2109.2</ele>
        <time>2018-10-21T15:13:36Z</time>
      </trkpt>
      <trkpt lat="42.640455" lon="1.883067">
        <ele>2104.9</ele>
        <time>2018-10-21T15:13:44Z</time>
      </trkpt>
      <trkpt lat="42.640541" lon="1.882996">
        <ele>2100.3</ele>
        <time>2018-10-21T15:13:53Z</time>
      </trkpt>
      <trkpt lat="42.640611" lon="1.882907">
        <ele>2095.9</ele>
        <time>2018-10-21T15:14:03Z</time>
      </trkpt>
      <trkpt lat="42.640663" lon="1.882866">
        <ele>2090.5</ele>
        <time>2018-10-21T15:14:18Z</time>
      </trkpt>
      <trkpt lat="42.640804" lon="1.882824">
        <ele>2087.7</ele>
        <time>2018-10-21T15:14:28Z</time>
      </trkpt>
      <trkpt lat="42.640928" lon="1.882817">
        <ele>2085.3</ele>
        <time>2018-10-21T15:14:37Z</time>
      </trkpt>
      <trkpt lat="42.641057" lon="1.882798">
        <ele>2082.7</ele>
        <time>2018-10-21T15:14:51Z</time>
      </trkpt>
      <trkpt lat="42.641175" lon="1.882830">
        <ele>2082.2</ele>
        <time>2018-10-21T15:15:02Z</time>
      </trkpt>
      <trkpt lat="42.641308" lon="1.882857">
        <ele>2082.2</ele>
        <time>2018-10-21T15:15:13Z</time>
      </trkpt>
      <trkpt lat="42.641421" lon="1.882841">
        <ele>2081.6</ele>
        <time>2018-10-21T15:15:24Z</time>
      </trkpt>
      <trkpt lat="42.641533" lon="1.882787">
        <ele>2081.6</ele>
        <time>2018-10-21T15:15:36Z</time>
      </trkpt>
      <trkpt lat="42.641653" lon="1.882764">
        <ele>2081.5</ele>
        <time>2018-10-21T15:15:46Z</time>
      </trkpt>
      <trkpt lat="42.641754" lon="1.882695">
        <ele>2081.4</ele>
        <time>2018-10-21T15:15:57Z</time>
      </trkpt>
      <trkpt lat="42.641865" lon="1.882629">
        <ele>2081.7</ele>
        <time>2018-10-21T15:16:07Z</time>
      </trkpt>
      <trkpt lat="42.641970" lon="1.882547">
        <ele>2081.5</ele>
        <time>2018-10-21T15:16:18Z</time>
      </trkpt>
      <trkpt lat="42.642061" lon="1.882432">
        <ele>2081.5</ele>
        <time>2018-10-21T15:16:28Z</time>
      </trkpt>
      <trkpt lat="42.642141" lon="1.882313">
        <ele>2081.2</ele>
        <time>2018-10-21T15:16:39Z</time>
      </trkpt>
      <trkpt lat="42.642183" lon="1.882171">
        <ele>2081.1</ele>
        <time>2018-10-21T15:16:51Z</time>
      </trkpt>
      <trkpt lat="42.642221" lon="1.882026">
        <ele>2081.4</ele>
        <time>2018-10-21T15:17:02Z</time>
      </trkpt>
      <trkpt lat="42.642271" lon="1.881899">
        <ele>2084.3</ele>
        <time>2018-10-21T15:17:13Z</time>
      </trkpt>
      <trkpt lat="42.642322" lon="1.881768">
        <ele>2086.1</ele>
        <time>2018-10-21T15:17:25Z</time>
      </trkpt>
      <trkpt lat="42.642392" lon="1.881641">
        <ele>2085.2</ele>
        <time>2018-10-21T15:17:35Z</time>
      </trkpt>
      <trkpt lat="42.642462" lon="1.881544">
        <ele>2082.6</ele>
        <time>2018-10-21T15:17:44Z</time>
      </trkpt>
      <trkpt lat="42.642528" lon="1.881519">
        <ele>2079.8</ele>
        <time>2018-10-21T15:18:18Z</time>
      </trkpt>
      <trkpt lat="42.642513" lon="1.881455">
        <ele>2078.9</ele>
        <time>2018-10-21T15:19:19Z</time>
      </trkpt>
      <trkpt lat="42.642508" lon="1.881517">
        <ele>2078.6</ele>
        <time>2018-10-21T15:20:07Z</time>
      </trkpt>
      <trkpt lat="42.642509" lon="1.881467">
        <ele>2078.4</ele>
        <time>2018-10-21T15:20:48Z</time>
      </trkpt>
      <trkpt lat="42.642558" lon="1.881442">
        <ele>2078.2</ele>
        <time>2018-10-21T15:21:21Z</time>
      </trkpt>
      <trkpt lat="42.642657" lon="1.881425">
        <ele>2077.4</ele>
        <time>2018-10-21T15:21:31Z</time>
      </trkpt>
      <trkpt lat="42.642772" lon="1.881416">
        <ele>2073.7</ele>
        <time>2018-10-21T15:21:45Z</time>
      </trkpt>
      <trkpt lat="42.642864" lon="1.881415">
        <ele>2070.9</ele>
        <time>2018-10-21T15:21:56Z</time>
      </trkpt>
      <trkpt lat="42.642955" lon="1.881375">
        <ele>2068.2</ele>
        <time>2018-10-21T15:22:07Z</time>
      </trkpt>
      <trkpt lat="42.643050" lon="1.881454">
        <ele>2065.2</ele>
        <time>2018-10-21T15:22:18Z</time>
      </trkpt>
      <trkpt lat="42.643142" lon="1.881446">
        <ele>2063.1</ele>
        <time>2018-10-21T15:22:32Z</time>
      </trkpt>
      <trkpt lat="42.643257" lon="1.881480">
        <ele>2062.0</ele>
        <time>2018-10-21T15:22:43Z</time>
      </trkpt>
      <trkpt lat="42.643345" lon="1.881509">
        <ele>2060.9</ele>
        <time>2018-10-21T15:22:53Z</time>
      </trkpt>
      <trkpt lat="42.643501" lon="1.881543">
        <ele>2059.9</ele>
        <time>2018-10-21T15:23:07Z</time>
      </trkpt>
      <trkpt lat="42.643629" lon="1.881532">
        <ele>2059.1</ele>
        <time>2018-10-21T15:23:20Z</time>
      </trkpt>
      <trkpt lat="42.643737" lon="1.881544">
        <ele>2057.8</ele>
        <time>2018-10-21T15:23:32Z</time>
      </trkpt>
      <trkpt lat="42.643855" lon="1.881569">
        <ele>2056.9</ele>
        <time>2018-10-21T15:23:44Z</time>
      </trkpt>
      <trkpt lat="42.643964" lon="1.881532">
        <ele>2055.8</ele>
        <time>2018-10-21T15:23:56Z</time>
      </trkpt>
      <trkpt lat="42.644068" lon="1.881538">
        <ele>2053.9</ele>
        <time>2018-10-21T15:24:08Z</time>
      </trkpt>
      <trkpt lat="42.644152" lon="1.881559">
        <ele>2052.4</ele>
        <time>2018-10-21T15:24:28Z</time>
      </trkpt>
      <trkpt lat="42.644270" lon="1.881584">
        <ele>2052.0</ele>
        <time>2018-10-21T15:24:48Z</time>
      </trkpt>
      <trkpt lat="42.644388" lon="1.881618">
        <ele>2051.6</ele>
        <time>2018-10-21T15:25:02Z</time>
      </trkpt>
      <trkpt lat="42.644485" lon="1.881663">
        <ele>2050.4</ele>
        <time>2018-10-21T15:25:13Z</time>
      </trkpt>
      <trkpt lat="42.644594" lon="1.881720">
        <ele>2047.7</ele>
        <time>2018-10-21T15:25:29Z</time>
      </trkpt>
      <trkpt lat="42.644678" lon="1.881719">
        <ele>2045.1</ele>
        <time>2018-10-21T15:25:40Z</time>
      </trkpt>
      <trkpt lat="42.644735" lon="1.881823">
        <ele>2042.6</ele>
        <time>2018-10-21T15:25:52Z</time>
      </trkpt>
      <trkpt lat="42.644792" lon="1.881927">
        <ele>2039.8</ele>
        <time>2018-10-21T15:26:07Z</time>
      </trkpt>
      <trkpt lat="42.644836" lon="1.882039">
        <ele>2038.0</ele>
        <time>2018-10-21T15:26:17Z</time>
      </trkpt>
      <trkpt lat="42.644880" lon="1.882140">
        <ele>2036.5</ele>
        <time>2018-10-21T15:26:27Z</time>
      </trkpt>
      <trkpt lat="42.644941" lon="1.882238">
        <ele>2035.1</ele>
        <time>2018-10-21T15:26:37Z</time>
      </trkpt>
      <trkpt lat="42.645028" lon="1.882325">
        <ele>2033.7</ele>
        <time>2018-10-21T15:26:49Z</time>
      </trkpt>
      <trkpt lat="42.645111" lon="1.882396">
        <ele>2031.2</ele>
        <time>2018-10-21T15:27:01Z</time>
      </trkpt>
      <trkpt lat="42.645203" lon="1.882500">
        <ele>2029.8</ele>
        <time>2018-10-21T15:27:14Z</time>
      </trkpt>
      <trkpt lat="42.645260" lon="1.882634">
        <ele>2028.9</ele>
        <time>2018-10-21T15:27:27Z</time>
      </trkpt>
      <trkpt lat="42.645351" lon="1.882721">
        <ele>2027.8</ele>
        <time>2018-10-21T15:27:37Z</time>
      </trkpt>
      <trkpt lat="42.645448" lon="1.882794">
        <ele>2025.7</ele>
        <time>2018-10-21T15:27:47Z</time>
      </trkpt>
      <trkpt lat="42.645536" lon="1.882862">
        <ele>2023.9</ele>
        <time>2018-10-21T15:27:57Z</time>
      </trkpt>
      <trkpt lat="42.645632" lon="1.882906">
        <ele>2022.2</ele>
        <time>2018-10-21T15:28:08Z</time>
      </trkpt>
      <trkpt lat="42.645708" lon="1.883025">
        <ele>2020.8</ele>
        <time>2018-10-21T15:28:20Z</time>
      </trkpt>
      <trkpt lat="42.645766" lon="1.883161">
        <ele>2019.9</ele>
        <time>2018-10-21T15:28:32Z</time>
      </trkpt>
      <trkpt lat="42.645854" lon="1.883252">
        <ele>2018.4</ele>
        <time>2018-10-21T15:28:42Z</time>
      </trkpt>
      <trkpt lat="42.645936" lon="1.883332">
        <ele>2016.5</ele>
        <time>2018-10-21T15:28:52Z</time>
      </trkpt>
      <trkpt lat="42.646046" lon="1.883375">
        <ele>2014.0</ele>
        <time>2018-10-21T15:29:03Z</time>
      </trkpt>
      <trkpt lat="42.646127" lon="1.883420">
        <ele>2011.1</ele>
        <time>2018-10-21T15:29:14Z</time>
      </trkpt>
      <trkpt lat="42.646227" lon="1.883444">
        <ele>2008.1</ele>
        <time>2018-10-21T15:29:26Z</time>
      </trkpt>
      <trkpt lat="42.646330" lon="1.883463">
        <ele>2004.6</ele>
        <time>2018-10-21T15:29:36Z</time>
      </trkpt>
      <trkpt lat="42.646423" lon="1.883532">
        <ele>2001.2</ele>
        <time>2018-10-21T15:29:48Z</time>
      </trkpt>
      <trkpt lat="42.646501" lon="1.883613">
        <ele>1998.7</ele>
        <time>2018-10-21T15:29:58Z</time>
      </trkpt>
      <trkpt lat="42.646605" lon="1.883648">
        <ele>1995.2</ele>
        <time>2018-10-21T15:30:12Z</time>
      </trkpt>
      <trkpt lat="42.646697" lon="1.883688">
        <ele>1990.7</ele>
        <time>2018-10-21T15:30:28Z</time>
      </trkpt>
      <trkpt lat="42.646779" lon="1.883710">
        <ele>1987.6</ele>
        <time>2018-10-21T15:30:40Z</time>
      </trkpt>
      <trkpt lat="42.646835" lon="1.883772">
        <ele>1984.2</ele>
        <time>2018-10-21T15:30:58Z</time>
      </trkpt>
      <trkpt lat="42.646878" lon="1.883868">
        <ele>1978.9</ele>
        <time>2018-10-21T15:31:15Z</time>
      </trkpt>
      <trkpt lat="42.646970" lon="1.883919">
        <ele>1974.2</ele>
        <time>2018-10-21T15:31:32Z</time>
      </trkpt>
      <trkpt lat="42.647086" lon="1.883940">
        <ele>1970.0</ele>
        <time>2018-10-21T15:31:47Z</time>
      </trkpt>
      <trkpt lat="42.647169" lon="1.883939">
        <ele>1967.9</ele>
        <time>2018-10-21T15:31:56Z</time>
      </trkpt>
      <trkpt lat="42.647270" lon="1.884007">
        <ele>1964.4</ele>
        <time>2018-10-21T15:32:10Z</time>
      </trkpt>
      <trkpt lat="42.647381" lon="1.884034">
        <ele>1961.0</ele>
        <time>2018-10-21T15:32:23Z</time>
      </trkpt>
      <trkpt lat="42.647472" lon="1.884002">
        <ele>1957.1</ele>
        <time>2018-10-21T15:32:38Z</time>
      </trkpt>
      <trkpt lat="42.647578" lon="1.883989">
        <ele>1953.9</ele>
        <time>2018-10-21T15:32:53Z</time>
      </trkpt>
      <trkpt lat="42.647668" lon="1.883957">
        <ele>1951.0</ele>
        <time>2018-10-21T15:33:07Z</time>
      </trkpt>
      <trkpt lat="42.647764" lon="1.883900">
        <ele>1947.4</ele>
        <time>2018-10-21T15:33:24Z</time>
      </trkpt>
      <trkpt lat="42.647859" lon="1.883843">
        <ele>1944.6</ele>
        <time>2018-10-21T15:33:37Z</time>
      </trkpt>
      <trkpt lat="42.647925" lon="1.883761">
        <ele>1942.4</ele>
        <time>2018-10-21T15:33:47Z</time>
      </trkpt>
      <trkpt lat="42.648015" lon="1.883701">
        <ele>1940.8</ele>
        <time>2018-10-21T15:34:00Z</time>
      </trkpt>
      <trkpt lat="42.648127" lon="1.883727">
        <ele>1940.4</ele>
        <time>2018-10-21T15:34:11Z</time>
      </trkpt>
      <trkpt lat="42.648207" lon="1.883812">
        <ele>1939.7</ele>
        <time>2018-10-21T15:34:22Z</time>
      </trkpt>
      <trkpt lat="42.648290" lon="1.883882">
        <ele>1938.1</ele>
        <time>2018-10-21T15:34:33Z</time>
      </trkpt>
      <trkpt lat="42.648373" lon="1.883970">
        <ele>1935.5</ele>
        <time>2018-10-21T15:34:48Z</time>
      </trkpt>
      <trkpt lat="42.648457" lon="1.884065">
        <ele>1933.3</ele>
        <time>2018-10-21T15:34:58Z</time>
      </trkpt>
      <trkpt lat="42.648559" lon="1.884106">
        <ele>1931.5</ele>
        <time>2018-10-21T15:35:07Z</time>
      </trkpt>
      <trkpt lat="42.648673" lon="1.884123">
        <ele>1929.6</ele>
        <time>2018-10-21T15:35:20Z</time>
      </trkpt>
      <trkpt lat="42.648775" lon="1.884058">
        <ele>1928.6</ele>
        <time>2018-10-21T15:35:31Z</time>
      </trkpt>
      <trkpt lat="42.648870" lon="1.884026">
        <ele>1930.0</ele>
        <time>2018-10-21T15:35:43Z</time>
      </trkpt>
      <trkpt lat="42.648948" lon="1.884031">
        <ele>1930.3</ele>
        <time>2018-10-21T15:35:58Z</time>
      </trkpt>
      <trkpt lat="42.649055" lon="1.884026">
        <ele>1930.6</ele>
        <time>2018-10-21T15:36:10Z</time>
      </trkpt>
      <trkpt lat="42.649148" lon="1.884080">
        <ele>1930.5</ele>
        <time>2018-10-21T15:36:21Z</time>
      </trkpt>
      <trkpt lat="42.649258" lon="1.884089">
        <ele>1930.5</ele>
        <time>2018-10-21T15:36:35Z</time>
      </trkpt>
      <trkpt lat="42.649382" lon="1.884097">
        <ele>1927.6</ele>
        <time>2018-10-21T15:36:48Z</time>
      </trkpt>
      <trkpt lat="42.649490" lon="1.884139">
        <ele>1925.1</ele>
        <time>2018-10-21T15:37:01Z</time>
      </trkpt>
      <trkpt lat="42.649589" lon="1.884173">
        <ele>1922.7</ele>
        <time>2018-10-21T15:37:25Z</time>
      </trkpt>
      <trkpt lat="42.649714" lon="1.884216">
        <ele>1921.6</ele>
        <time>2018-10-21T15:37:37Z</time>
      </trkpt>
      <trkpt lat="42.649814" lon="1.884259">
        <ele>1919.9</ele>
        <time>2018-10-21T15:37:53Z</time>
      </trkpt>
      <trkpt lat="42.649924" lon="1.884324">
        <ele>1918.6</ele>
        <time>2018-10-21T15:38:07Z</time>
      </trkpt>
      <trkpt lat="42.649977" lon="1.884430">
        <ele>1916.5</ele>
        <time>2018-10-21T15:38:15Z</time>
      </trkpt>
      <trkpt lat="42.650073" lon="1.884473">
        <ele>1915.3</ele>
        <time>2018-10-21T15:38:25Z</time>
      </trkpt>
      <trkpt lat="42.650163" lon="1.884515">
        <ele>1912.8</ele>
        <time>2018-10-21T15:38:34Z</time>
      </trkpt>
      <trkpt lat="42.650249" lon="1.884617">
        <ele>1911.7</ele>
        <time>2018-10-21T15:38:45Z</time>
      </trkpt>
      <trkpt lat="42.650316" lon="1.884708">
        <ele>1910.2</ele>
        <time>2018-10-21T15:38:59Z</time>
      </trkpt>
      <trkpt lat="42.650379" lon="1.884778">
        <ele>1909.2</ele>
        <time>2018-10-21T15:39:54Z</time>
      </trkpt>
      <trkpt lat="42.650441" lon="1.884864">
        <ele>1908.3</ele>
        <time>2018-10-21T15:40:02Z</time>
      </trkpt>
      <trkpt lat="42.650512" lon="1.884905">
        <ele>1906.4</ele>
        <time>2018-10-21T15:40:11Z</time>
      </trkpt>
      <trkpt lat="42.650602" lon="1.884965">
        <ele>1904.2</ele>
        <time>2018-10-21T15:40:21Z</time>
      </trkpt>
      <trkpt lat="42.650690" lon="1.885012">
        <ele>1902.3</ele>
        <time>2018-10-21T15:40:30Z</time>
      </trkpt>
      <trkpt lat="42.650783" lon="1.885043">
        <ele>1901.0</ele>
        <time>2018-10-21T15:40:39Z</time>
      </trkpt>
      <trkpt lat="42.650882" lon="1.884994">
        <ele>1899.4</ele>
        <time>2018-10-21T15:40:51Z</time>
      </trkpt>
      <trkpt lat="42.650971" lon="1.884958">
        <ele>1897.7</ele>
        <time>2018-10-21T15:41:03Z</time>
      </trkpt>
      <trkpt lat="42.651052" lon="1.884868">
        <ele>1896.6</ele>
        <time>2018-10-21T15:41:15Z</time>
      </trkpt>
      <trkpt lat="42.651132" lon="1.884893">
        <ele>1896.2</ele>
        <time>2018-10-21T15:41:25Z</time>
      </trkpt>
      <trkpt lat="42.651216" lon="1.884931">
        <ele>1895.2</ele>
        <time>2018-10-21T15:41:35Z</time>
      </trkpt>
      <trkpt lat="42.651313" lon="1.884945">
        <ele>1892.4</ele>
        <time>2018-10-21T15:41:49Z</time>
      </trkpt>
      <trkpt lat="42.651401" lon="1.885016">
        <ele>1890.5</ele>
        <time>2018-10-21T15:42:01Z</time>
      </trkpt>
      <trkpt lat="42.651520" lon="1.885001">
        <ele>1888.5</ele>
        <time>2018-10-21T15:42:13Z</time>
      </trkpt>
      <trkpt lat="42.651620" lon="1.885062">
        <ele>1887.7</ele>
        <time>2018-10-21T15:42:25Z</time>
      </trkpt>
      <trkpt lat="42.651707" lon="1.885100">
        <ele>1886.0</ele>
        <time>2018-10-21T15:42:40Z</time>
      </trkpt>
      <trkpt lat="42.651807" lon="1.885122">
        <ele>1883.8</ele>
        <time>2018-10-21T15:42:52Z</time>
      </trkpt>
      <trkpt lat="42.651925" lon="1.885108">
        <ele>1882.7</ele>
        <time>2018-10-21T15:43:06Z</time>
      </trkpt>
      <trkpt lat="42.652024" lon="1.885087">
        <ele>1881.7</ele>
        <time>2018-10-21T15:43:16Z</time>
      </trkpt>
      <trkpt lat="42.652122" lon="1.885102">
        <ele>1881.0</ele>
        <time>2018-10-21T15:43:25Z</time>
      </trkpt>
      <trkpt lat="42.652223" lon="1.885127">
        <ele>1880.3</ele>
        <time>2018-10-21T15:43:35Z</time>
      </trkpt>
      <trkpt lat="42.652326" lon="1.885144">
        <ele>1879.4</ele>
        <time>2018-10-21T15:43:45Z</time>
      </trkpt>
      <trkpt lat="42.652435" lon="1.885136">
        <ele>1879.0</ele>
        <time>2018-10-21T15:43:56Z</time>
      </trkpt>
      <trkpt lat="42.652542" lon="1.885207">
        <ele>1879.3</ele>
        <time>2018-10-21T15:44:07Z</time>
      </trkpt>
      <trkpt lat="42.652631" lon="1.885292">
        <ele>1877.6</ele>
        <time>2018-10-21T15:44:21Z</time>
      </trkpt>
      <trkpt lat="42.652706" lon="1.885392">
        <ele>1874.3</ele>
        <time>2018-10-21T15:44:38Z</time>
      </trkpt>
      <trkpt lat="42.652780" lon="1.885440">
        <ele>1871.9</ele>
        <time>2018-10-21T15:44:51Z</time>
      </trkpt>
      <trkpt lat="42.652881" lon="1.885443">
        <ele>1869.3</ele>
        <time>2018-10-21T15:45:05Z</time>
      </trkpt>
      <trkpt lat="42.652974" lon="1.885378">
        <ele>1866.5</ele>
        <time>2018-10-21T15:45:15Z</time>
      </trkpt>
      <trkpt lat="42.653049" lon="1.885318">
        <ele>1862.3</ele>
        <time>2018-10-21T15:45:49Z</time>
      </trkpt>
      <trkpt lat="42.653079" lon="1.885241">
        <ele>1862.0</ele>
        <time>2018-10-21T15:46:14Z</time>
      </trkpt>
      <trkpt lat="42.653148" lon="1.885161">
        <ele>1859.6</ele>
        <time>2018-10-21T15:46:26Z</time>
      </trkpt>
      <trkpt lat="42.653231" lon="1.885104">
        <ele>1856.6</ele>
        <time>2018-10-21T15:46:37Z</time>
      </trkpt>
      <trkpt lat="42.653267" lon="1.885001">
        <ele>1852.6</ele>
        <time>2018-10-21T15:46:51Z</time>
      </trkpt>
      <trkpt lat="42.653344" lon="1.884929">
        <ele>1848.5</ele>
        <time>2018-10-21T15:47:02Z</time>
      </trkpt>
      <trkpt lat="42.653437" lon="1.884843">
        <ele>1845.7</ele>
        <time>2018-10-21T15:47:13Z</time>
      </trkpt>
      <trkpt lat="42.653510" lon="1.884770">
        <ele>1843.3</ele>
        <time>2018-10-21T15:47:24Z</time>
      </trkpt>
      <trkpt lat="42.653563" lon="1.884684">
        <ele>1840.6</ele>
        <time>2018-10-21T15:47:33Z</time>
      </trkpt>
      <trkpt lat="42.653638" lon="1.884578">
        <ele>1837.7</ele>
        <time>2018-10-21T15:47:43Z</time>
      </trkpt>
      <trkpt lat="42.653708" lon="1.884478">
        <ele>1834.5</ele>
        <time>2018-10-21T15:47:52Z</time>
      </trkpt>
      <trkpt lat="42.653765" lon="1.884390">
        <ele>1831.8</ele>
        <time>2018-10-21T15:48:01Z</time>
      </trkpt>
      <trkpt lat="42.653839" lon="1.884323">
        <ele>1828.2</ele>
        <time>2018-10-21T15:48:11Z</time>
      </trkpt>
      <trkpt lat="42.653870" lon="1.884194">
        <ele>1823.3</ele>
        <time>2018-10-21T15:48:23Z</time>
      </trkpt>
      <trkpt lat="42.653883" lon="1.884091">
        <ele>1819.3</ele>
        <time>2018-10-21T15:48:37Z</time>
      </trkpt>
      <trkpt lat="42.653936" lon="1.883986">
        <ele>1814.7</ele>
        <time>2018-10-21T15:48:51Z</time>
      </trkpt>
      <trkpt lat="42.653994" lon="1.883894">
        <ele>1809.5</ele>
        <time>2018-10-21T15:49:09Z</time>
      </trkpt>
      <trkpt lat="42.654023" lon="1.883786">
        <ele>1806.0</ele>
        <time>2018-10-21T15:49:23Z</time>
      </trkpt>
      <trkpt lat="42.654076" lon="1.883681">
        <ele>1801.0</ele>
        <time>2018-10-21T15:49:42Z</time>
      </trkpt>
      <trkpt lat="42.654127" lon="1.883555">
        <ele>1796.4</ele>
        <time>2018-10-21T15:50:00Z</time>
      </trkpt>
      <trkpt lat="42.654202" lon="1.883458">
        <ele>1792.6</ele>
        <time>2018-10-21T15:50:16Z</time>
      </trkpt>
      <trkpt lat="42.654302" lon="1.883381">
        <ele>1789.1</ele>
        <time>2018-10-21T15:50:31Z</time>
      </trkpt>
      <trkpt lat="42.654370" lon="1.883292">
        <ele>1786.8</ele>
        <time>2018-10-21T15:50:45Z</time>
      </trkpt>
      <trkpt lat="42.654459" lon="1.883229">
        <ele>1783.2</ele>
        <time>2018-10-21T15:51:02Z</time>
      </trkpt>
      <trkpt lat="42.654548" lon="1.883169">
        <ele>1779.3</ele>
        <time>2018-10-21T15:51:18Z</time>
      </trkpt>
      <trkpt lat="42.654579" lon="1.883204">
        <ele>1775.9</ele>
        <time>2018-10-21T15:53:11Z</time>
      </trkpt>
      <trkpt lat="42.654684" lon="1.883137">
        <ele>1774.5</ele>
        <time>2018-10-21T15:53:49Z</time>
      </trkpt>
      <trkpt lat="42.654763" lon="1.883051">
        <ele>1770.7</ele>
        <time>2018-10-21T15:54:03Z</time>
      </trkpt>
      <trkpt lat="42.654850" lon="1.882955">
        <ele>1768.4</ele>
        <time>2018-10-21T15:54:15Z</time>
      </trkpt>
      <trkpt lat="42.654923" lon="1.882844">
        <ele>1766.1</ele>
        <time>2018-10-21T15:54:25Z</time>
      </trkpt>
      <trkpt lat="42.655030" lon="1.882788">
        <ele>1764.0</ele>
        <time>2018-10-21T15:54:38Z</time>
      </trkpt>
      <trkpt lat="42.655094" lon="1.882760">
        <ele>1763.1</ele>
        <time>2018-10-21T15:54:49Z</time>
      </trkpt>
      <trkpt lat="42.655183" lon="1.882678">
        <ele>1759.6</ele>
        <time>2018-10-21T15:55:01Z</time>
      </trkpt>
      <trkpt lat="42.655272" lon="1.882638">
        <ele>1755.3</ele>
        <time>2018-10-21T15:55:15Z</time>
      </trkpt>
      <trkpt lat="42.655388" lon="1.882658">
        <ele>1751.8</ele>
        <time>2018-10-21T15:55:25Z</time>
      </trkpt>
      <trkpt lat="42.655475" lon="1.882595">
        <ele>1749.8</ele>
        <time>2018-10-21T15:55:33Z</time>
      </trkpt>
      <trkpt lat="42.655567" lon="1.882566">
        <ele>1746.8</ele>
        <time>2018-10-21T15:55:42Z</time>
      </trkpt>
      <trkpt lat="42.655645" lon="1.882533">
        <ele>1743.6</ele>
        <time>2018-10-21T15:55:51Z</time>
      </trkpt>
      <trkpt lat="42.655725" lon="1.882507">
        <ele>1740.3</ele>
        <time>2018-10-21T15:56:08Z</time>
      </trkpt>
      <trkpt lat="42.655815" lon="1.882458">
        <ele>1738.3</ele>
        <time>2018-10-21T15:56:18Z</time>
      </trkpt>
      <trkpt lat="42.655904" lon="1.882371">
        <ele>1735.9</ele>
        <time>2018-10-21T15:56:28Z</time>
      </trkpt>
      <trkpt lat="42.655975" lon="1.882272">
        <ele>1734.1</ele>
        <time>2018-10-21T15:56:40Z</time>
      </trkpt>
      <trkpt lat="42.656055" lon="1.882208">
        <ele>1732.7</ele>
        <time>2018-10-21T15:56:49Z</time>
      </trkpt>
      <trkpt lat="42.656154" lon="1.882152">
        <ele>1729.8</ele>
        <time>2018-10-21T15:57:01Z</time>
      </trkpt>
      <trkpt lat="42.656251" lon="1.882125">
        <ele>1727.6</ele>
        <time>2018-10-21T15:57:10Z</time>
      </trkpt>
      <trkpt lat="42.656341" lon="1.882105">
        <ele>1725.4</ele>
        <time>2018-10-21T15:59:06Z</time>
      </trkpt>
      <trkpt lat="42.656439" lon="1.882055">
        <ele>1723.9</ele>
        <time>2018-10-21T15:59:17Z</time>
      </trkpt>
      <trkpt lat="42.656546" lon="1.882019">
        <ele>1720.8</ele>
        <time>2018-10-21T15:59:27Z</time>
      </trkpt>
      <trkpt lat="42.656639" lon="1.881962">
        <ele>1718.2</ele>
        <time>2018-10-21T15:59:38Z</time>
      </trkpt>
      <trkpt lat="42.656735" lon="1.881875">
        <ele>1713.6</ele>
        <time>2018-10-21T15:59:50Z</time>
      </trkpt>
      <trkpt lat="42.656864" lon="1.881876">
        <ele>1710.2</ele>
        <time>2018-10-21T16:00:03Z</time>
      </trkpt>
      <trkpt lat="42.656983" lon="1.881833">
        <ele>1706.7</ele>
        <time>2018-10-21T16:00:15Z</time>
      </trkpt>
      <trkpt lat="42.657082" lon="1.881806">
        <ele>1703.8</ele>
        <time>2018-10-21T16:00:23Z</time>
      </trkpt>
      <trkpt lat="42.657183" lon="1.881738">
        <ele>1701.5</ele>
        <time>2018-10-21T16:00:38Z</time>
      </trkpt>
      <trkpt lat="42.657257" lon="1.881662">
        <ele>1700.3</ele>
        <time>2018-10-21T16:00:51Z</time>
      </trkpt>
      <trkpt lat="42.657360" lon="1.881666">
        <ele>1699.5</ele>
        <time>2018-10-21T16:01:00Z</time>
      </trkpt>
      <trkpt lat="42.657424" lon="1.881593">
        <ele>1698.6</ele>
        <time>2018-10-21T16:01:10Z</time>
      </trkpt>
      <trkpt lat="42.657482" lon="1.881482">
        <ele>1697.7</ele>
        <time>2018-10-21T16:01:19Z</time>
      </trkpt>
      <trkpt lat="42.657562" lon="1.881424">
        <ele>1696.2</ele>
        <time>2018-10-21T16:01:30Z</time>
      </trkpt>
      <trkpt lat="42.657649" lon="1.881367">
        <ele>1695.4</ele>
        <time>2018-10-21T16:01:38Z</time>
      </trkpt>
      <trkpt lat="42.657748" lon="1.881358">
        <ele>1694.4</ele>
        <time>2018-10-21T16:01:47Z</time>
      </trkpt>
      <trkpt lat="42.657822" lon="1.881276">
        <ele>1693.4</ele>
        <time>2018-10-21T16:01:56Z</time>
      </trkpt>
      <trkpt lat="42.657888" lon="1.881205">
        <ele>1690.6</ele>
        <time>2018-10-21T16:02:04Z</time>
      </trkpt>
      <trkpt lat="42.657959" lon="1.881122">
        <ele>1687.1</ele>
        <time>2018-10-21T16:02:12Z</time>
      </trkpt>
      <trkpt lat="42.658045" lon="1.881057">
        <ele>1683.9</ele>
        <time>2018-10-21T16:02:21Z</time>
      </trkpt>
      <trkpt lat="42.658145" lon="1.881000">
        <ele>1680.8</ele>
        <time>2018-10-21T16:02:30Z</time>
      </trkpt>
      <trkpt lat="42.658187" lon="1.880867">
        <ele>1678.5</ele>
        <time>2018-10-21T16:02:39Z</time>
      </trkpt>
      <trkpt lat="42.658244" lon="1.880767">
        <ele>1675.6</ele>
        <time>2018-10-21T16:02:48Z</time>
      </trkpt>
      <trkpt lat="42.658302" lon="1.880680">
        <ele>1673.0</ele>
        <time>2018-10-21T16:02:57Z</time>
      </trkpt>
      <trkpt lat="42.658352" lon="1.880563">
        <ele>1670.4</ele>
        <time>2018-10-21T16:03:07Z</time>
      </trkpt>
      <trkpt lat="42.658398" lon="1.880449">
        <ele>1668.0</ele>
        <time>2018-10-21T16:03:16Z</time>
      </trkpt>
      <trkpt lat="42.658450" lon="1.880337">
        <ele>1665.8</ele>
        <time>2018-10-21T16:03:25Z</time>
      </trkpt>
      <trkpt lat="42.658498" lon="1.880207">
        <ele>1663.6</ele>
        <time>2018-10-21T16:03:34Z</time>
      </trkpt>
      <trkpt lat="42.658558" lon="1.880116">
        <ele>1661.3</ele>
        <time>2018-10-21T16:03:41Z</time>
      </trkpt>
      <trkpt lat="42.658612" lon="1.880010">
        <ele>1660.2</ele>
        <time>2018-10-21T16:03:50Z</time>
      </trkpt>
      <trkpt lat="42.658682" lon="1.879914">
        <ele>1658.7</ele>
        <time>2018-10-21T16:03:59Z</time>
      </trkpt>
      <trkpt lat="42.658747" lon="1.879801">
        <ele>1657.3</ele>
        <time>2018-10-21T16:04:08Z</time>
      </trkpt>
      <trkpt lat="42.658722" lon="1.879671">
        <ele>1655.8</ele>
        <time>2018-10-21T16:04:17Z</time>
      </trkpt>
      <trkpt lat="42.658715" lon="1.879555">
        <ele>1655.0</ele>
        <time>2018-10-21T16:04:25Z</time>
      </trkpt>
      <trkpt lat="42.658745" lon="1.879447">
        <ele>1655.9</ele>
        <time>2018-10-21T16:04:33Z</time>
      </trkpt>
      <trkpt lat="42.658789" lon="1.879454">
        <ele>1658.1</ele>
        <time>2018-10-21T16:04:50Z</time>
      </trkpt>
      <trkpt lat="42.658837" lon="1.879489">
        <ele>1657.1</ele>
        <time>2018-10-21T16:06:56Z</time>
      </trkpt>
      <trkpt lat="42.658868" lon="1.879375">
        <ele>1656.1</ele>
        <time>2018-10-21T16:07:05Z</time>
      </trkpt>
      <trkpt lat="42.658871" lon="1.879237">
        <ele>1655.2</ele>
        <time>2018-10-21T16:07:16Z</time>
      </trkpt>
      <trkpt lat="42.658906" lon="1.879105">
        <ele>1655.0</ele>
        <time>2018-10-21T16:07:30Z</time>
      </trkpt>
      <trkpt lat="42.659017" lon="1.879011">
        <ele>1654.8</ele>
        <time>2018-10-21T16:07:41Z</time>
      </trkpt>
      <trkpt lat="42.659106" lon="1.878925">
        <ele>1654.5</ele>
        <time>2018-10-21T16:07:51Z</time>
      </trkpt>
      <trkpt lat="42.659207" lon="1.878898">
        <ele>1654.1</ele>
        <time>2018-10-21T16:08:03Z</time>
      </trkpt>
      <trkpt lat="42.659280" lon="1.878862">
        <ele>1651.1</ele>
        <time>2018-10-21T16:08:17Z</time>
      </trkpt>
      <trkpt lat="42.659396" lon="1.878805">
        <ele>1648.0</ele>
        <time>2018-10-21T16:08:35Z</time>
      </trkpt>
      <trkpt lat="42.659520" lon="1.878747">
        <ele>1645.1</ele>
        <time>2018-10-21T16:08:49Z</time>
      </trkpt>
      <trkpt lat="42.659629" lon="1.878689">
        <ele>1641.7</ele>
        <time>2018-10-21T16:09:06Z</time>
      </trkpt>
      <trkpt lat="42.659765" lon="1.878612">
        <ele>1637.9</ele>
        <time>2018-10-21T16:09:25Z</time>
      </trkpt>
      <trkpt lat="42.659893" lon="1.878568">
        <ele>1633.6</ele>
        <time>2018-10-21T16:09:44Z</time>
      </trkpt>
      <trkpt lat="42.660031" lon="1.878549">
        <ele>1628.5</ele>
        <time>2018-10-21T16:10:02Z</time>
      </trkpt>
      <trkpt lat="42.660151" lon="1.878546">
        <ele>1624.4</ele>
        <time>2018-10-21T16:10:19Z</time>
      </trkpt>
      <trkpt lat="42.660228" lon="1.878689">
        <ele>1619.8</ele>
        <time>2018-10-21T16:10:39Z</time>
      </trkpt>
      <trkpt lat="42.660327" lon="1.878640">
        <ele>1616.5</ele>
        <time>2018-10-21T16:10:54Z</time>
      </trkpt>
      <trkpt lat="42.660431" lon="1.878565">
        <ele>1613.7</ele>
        <time>2018-10-21T16:11:05Z</time>
      </trkpt>
      <trkpt lat="42.660480" lon="1.878436">
        <ele>1611.5</ele>
        <time>2018-10-21T16:11:16Z</time>
      </trkpt>
      <trkpt lat="42.660558" lon="1.878371">
        <ele>1610.4</ele>
        <time>2018-10-21T16:11:29Z</time>
      </trkpt>
      <trkpt lat="42.660640" lon="1.878265">
        <ele>1608.8</ele>
        <time>2018-10-21T16:11:43Z</time>
      </trkpt>
      <trkpt lat="42.660726" lon="1.878126">
        <ele>1607.0</ele>
        <time>2018-10-21T16:11:55Z</time>
      </trkpt>
      <trkpt lat="42.660814" lon="1.877994">
        <ele>1605.6</ele>
        <time>2018-10-21T16:12:07Z</time>
      </trkpt>
      <trkpt lat="42.660917" lon="1.877903">
        <ele>1604.1</ele>
        <time>2018-10-21T16:12:19Z</time>
      </trkpt>
      <trkpt lat="42.661017" lon="1.877794">
        <ele>1602.6</ele>
        <time>2018-10-21T16:12:30Z</time>
      </trkpt>
      <trkpt lat="42.661141" lon="1.877694">
        <ele>1600.1</ele>
        <time>2018-10-21T16:12:43Z</time>
      </trkpt>
      <trkpt lat="42.661254" lon="1.877625">
        <ele>1597.3</ele>
        <time>2018-10-21T16:12:57Z</time>
      </trkpt>
      <trkpt lat="42.661360" lon="1.877538">
        <ele>1593.7</ele>
        <time>2018-10-21T16:13:11Z</time>
      </trkpt>
      <trkpt lat="42.661469" lon="1.877437">
        <ele>1589.9</ele>
        <time>2018-10-21T16:13:27Z</time>
      </trkpt>
      <trkpt lat="42.661561" lon="1.877472">
        <ele>1585.5</ele>
        <time>2018-10-21T16:13:46Z</time>
      </trkpt>
      <trkpt lat="42.661687" lon="1.877520">
        <ele>1582.5</ele>
        <time>2018-10-21T16:13:59Z</time>
      </trkpt>
      <trkpt lat="42.661785" lon="1.877540">
        <ele>1578.9</ele>
        <time>2018-10-21T16:14:13Z</time>
      </trkpt>
      <trkpt lat="42.661923" lon="1.877426">
        <ele>1576.2</ele>
        <time>2018-10-21T16:14:26Z</time>
      </trkpt>
      <trkpt lat="42.662028" lon="1.877340">
        <ele>1573.0</ele>
        <time>2018-10-21T16:14:41Z</time>
      </trkpt>
      <trkpt lat="42.662159" lon="1.877264">
        <ele>1570.6</ele>
        <time>2018-10-21T16:14:54Z</time>
      </trkpt>
      <trkpt lat="42.662276" lon="1.877210">
        <ele>1568.9</ele>
        <time>2018-10-21T16:15:07Z</time>
      </trkpt>
      <trkpt lat="42.662391" lon="1.877237">
        <ele>1565.6</ele>
        <time>2018-10-21T16:15:20Z</time>
      </trkpt>
      <trkpt lat="42.662486" lon="1.877256">
        <ele>1562.9</ele>
        <time>2018-10-21T16:15:29Z</time>
      </trkpt>
      <trkpt lat="42.662556" lon="1.877161">
        <ele>1560.5</ele>
        <time>2018-10-21T16:15:44Z</time>
      </trkpt>
      <trkpt lat="42.662678" lon="1.877122">
        <ele>1557.2</ele>
        <time>2018-10-21T16:15:58Z</time>
      </trkpt>
      <trkpt lat="42.662784" lon="1.877043">
        <ele>1554.3</ele>
        <time>2018-10-21T16:16:12Z</time>
      </trkpt>
      <trkpt lat="42.662877" lon="1.876928">
        <ele>1552.9</ele>
        <time>2018-10-21T16:16:24Z</time>
      </trkpt>
      <trkpt lat="42.662923" lon="1.876795">
        <ele>1550.1</ele>
        <time>2018-10-21T16:16:40Z</time>
      </trkpt>
      <trkpt lat="42.663043" lon="1.876770">
        <ele>1549.2</ele>
        <time>2018-10-21T16:16:56Z</time>
      </trkpt>
      <trkpt lat="42.663162" lon="1.876722">
        <ele>1546.3</ele>
        <time>2018-10-21T16:17:12Z</time>
      </trkpt>
      <trkpt lat="42.663260" lon="1.876632">
        <ele>1544.8</ele>
        <time>2018-10-21T16:17:27Z</time>
      </trkpt>
      <trkpt lat="42.663370" lon="1.876577">
        <ele>1543.8</ele>
        <time>2018-10-21T16:17:42Z</time>
      </trkpt>
      <trkpt lat="42.663477" lon="1.876539">
        <ele>1538.8</ele>
        <time>2018-10-21T16:17:57Z</time>
      </trkpt>
      <trkpt lat="42.663556" lon="1.876512">
        <ele>1536.2</ele>
        <time>2018-10-21T16:18:14Z</time>
      </trkpt>
      <trkpt lat="42.663678" lon="1.876451">
        <ele>1533.8</ele>
        <time>2018-10-21T16:18:25Z</time>
      </trkpt>
      <trkpt lat="42.663795" lon="1.876332">
        <ele>1529.7</ele>
        <time>2018-10-21T16:18:43Z</time>
      </trkpt>
      <trkpt lat="42.663921" lon="1.876343">
        <ele>1527.1</ele>
        <time>2018-10-21T16:18:54Z</time>
      </trkpt>
      <trkpt lat="42.664033" lon="1.876437">
        <ele>1524.9</ele>
        <time>2018-10-21T16:19:03Z</time>
      </trkpt>
      <trkpt lat="42.664139" lon="1.876397">
        <ele>1522.7</ele>
        <time>2018-10-21T16:19:16Z</time>
      </trkpt>
      <trkpt lat="42.664270" lon="1.876427">
        <ele>1520.5</ele>
        <time>2018-10-21T16:19:30Z</time>
      </trkpt>
      <trkpt lat="42.664315" lon="1.876251">
        <ele>1517.7</ele>
        <time>2018-10-21T16:19:45Z</time>
      </trkpt>
      <trkpt lat="42.664408" lon="1.876101">
        <ele>1513.8</ele>
        <time>2018-10-21T16:20:01Z</time>
      </trkpt>
      <trkpt lat="42.664516" lon="1.876001">
        <ele>1510.9</ele>
        <time>2018-10-21T16:20:16Z</time>
      </trkpt>
      <trkpt lat="42.664625" lon="1.875903">
        <ele>1508.9</ele>
        <time>2018-10-21T16:20:27Z</time>
      </trkpt>
      <trkpt lat="42.664745" lon="1.875803">
        <ele>1508.6</ele>
        <time>2018-10-21T16:20:36Z</time>
      </trkpt>
      <trkpt lat="42.664776" lon="1.875642">
        <ele>1507.7</ele>
        <time>2018-10-21T16:20:47Z</time>
      </trkpt>
      <trkpt lat="42.664824" lon="1.875503">
        <ele>1506.2</ele>
        <time>2018-10-21T16:20:59Z</time>
      </trkpt>
      <trkpt lat="42.664908" lon="1.875325">
        <ele>1503.8</ele>
        <time>2018-10-21T16:21:13Z</time>
      </trkpt>
      <trkpt lat="42.664985" lon="1.875142">
        <ele>1502.8</ele>
        <time>2018-10-21T16:21:27Z</time>
      </trkpt>
      <trkpt lat="42.665062" lon="1.874958">
        <ele>1500.7</ele>
        <time>2018-10-21T16:21:43Z</time>
      </trkpt>
      <trkpt lat="42.665091" lon="1.874740">
        <ele>1500.5</ele>
        <time>2018-10-21T16:21:56Z</time>
      </trkpt>
      <trkpt lat="42.665130" lon="1.874606">
        <ele>1499.6</ele>
        <time>2018-10-21T16:22:07Z</time>
      </trkpt>
      <trkpt lat="42.665253" lon="1.874630">
        <ele>1498.0</ele>
        <time>2018-10-21T16:22:18Z</time>
      </trkpt>
      <trkpt lat="42.665379" lon="1.874641">
        <ele>1495.4</ele>
        <time>2018-10-21T16:22:29Z</time>
      </trkpt>
      <trkpt lat="42.665468" lon="1.874614">
        <ele>1494.2</ele>
        <time>2018-10-21T16:22:36Z</time>
      </trkpt>
      <trkpt lat="42.665539" lon="1.874574">
        <ele>1493.0</ele>
        <time>2018-10-21T16:22:42Z</time>
      </trkpt>
      <trkpt lat="42.665613" lon="1.874647">
        <ele>1490.6</ele>
        <time>2018-10-21T16:22:52Z</time>
      </trkpt>
      <trkpt lat="42.665688" lon="1.874634">
        <ele>1488.8</ele>
        <time>2018-10-21T16:23:00Z</time>
      </trkpt>
      <trkpt lat="42.665765" lon="1.874571">
        <ele>1487.3</ele>
        <time>2018-10-21T16:23:09Z</time>
      </trkpt>
      <trkpt lat="42.665849" lon="1.874530">
        <ele>1485.8</ele>
        <time>2018-10-21T16:23:17Z</time>
      </trkpt>
      <trkpt lat="42.665944" lon="1.874509">
        <ele>1484.0</ele>
        <time>2018-10-21T16:23:26Z</time>
      </trkpt>
      <trkpt lat="42.666043" lon="1.874516">
        <ele>1482.9</ele>
        <time>2018-10-21T16:23:34Z</time>
      </trkpt>
      <trkpt lat="42.666145" lon="1.874523">
        <ele>1481.8</ele>
        <time>2018-10-21T16:23:41Z</time>
      </trkpt>
      <trkpt lat="42.666251" lon="1.874563">
        <ele>1480.3</ele>
        <time>2018-10-21T16:23:50Z</time>
      </trkpt>
      <trkpt lat="42.666354" lon="1.874573">
        <ele>1479.4</ele>
        <time>2018-10-21T16:23:58Z</time>
      </trkpt>
      <trkpt lat="42.666441" lon="1.874489">
        <ele>1478.9</ele>
        <time>2018-10-21T16:24:06Z</time>
      </trkpt>
      <trkpt lat="42.666534" lon="1.874438">
        <ele>1477.3</ele>
        <time>2018-10-21T16:24:15Z</time>
      </trkpt>
      <trkpt lat="42.666621" lon="1.874357">
        <ele>1475.7</ele>
        <time>2018-10-21T16:24:24Z</time>
      </trkpt>
      <trkpt lat="42.666710" lon="1.874297">
        <ele>1474.2</ele>
        <time>2018-10-21T16:24:32Z</time>
      </trkpt>
      <trkpt lat="42.666788" lon="1.874215">
        <ele>1472.1</ele>
        <time>2018-10-21T16:24:42Z</time>
      </trkpt>
      <trkpt lat="42.666862" lon="1.874122">
        <ele>1470.7</ele>
        <time>2018-10-21T16:24:55Z</time>
      </trkpt>
      <trkpt lat="42.666941" lon="1.874047">
        <ele>1468.8</ele>
        <time>2018-10-21T16:25:03Z</time>
      </trkpt>
      <trkpt lat="42.667036" lon="1.873943">
        <ele>1466.1</ele>
        <time>2018-10-21T16:25:13Z</time>
      </trkpt>
      <trkpt lat="42.667089" lon="1.873810">
        <ele>1463.7</ele>
        <time>2018-10-21T16:25:22Z</time>
      </trkpt>
      <trkpt lat="42.667150" lon="1.873707">
        <ele>1461.8</ele>
        <time>2018-10-21T16:25:30Z</time>
      </trkpt>
      <trkpt lat="42.667179" lon="1.873597">
        <ele>1460.7</ele>
        <time>2018-10-21T16:25:37Z</time>
      </trkpt>
      <trkpt lat="42.667249" lon="1.873522">
        <ele>1459.4</ele>
        <time>2018-10-21T16:25:45Z</time>
      </trkpt>
      <trkpt lat="42.667323" lon="1.873450">
        <ele>1457.7</ele>
        <time>2018-10-21T16:25:52Z</time>
      </trkpt>
      <trkpt lat="42.667378" lon="1.873344">
        <ele>1456.1</ele>
        <time>2018-10-21T16:26:00Z</time>
      </trkpt>
      <trkpt lat="42.667438" lon="1.873233">
        <ele>1455.4</ele>
        <time>2018-10-21T16:26:08Z</time>
      </trkpt>
      <trkpt lat="42.667484" lon="1.873127">
        <ele>1454.6</ele>
        <time>2018-10-21T16:26:15Z</time>
      </trkpt>
      <trkpt lat="42.667550" lon="1.873026">
        <ele>1453.1</ele>
        <time>2018-10-21T16:26:24Z</time>
      </trkpt>
      <trkpt lat="42.667604" lon="1.872907">
        <ele>1451.8</ele>
        <time>2018-10-21T16:26:33Z</time>
      </trkpt>
      <trkpt lat="42.667626" lon="1.872778">
        <ele>1450.6</ele>
        <time>2018-10-21T16:26:41Z</time>
      </trkpt>
      <trkpt lat="42.667646" lon="1.872658">
        <ele>1448.8</ele>
        <time>2018-10-21T16:26:50Z</time>
      </trkpt>
      <trkpt lat="42.667714" lon="1.872551">
        <ele>1446.9</ele>
        <time>2018-10-21T16:26:58Z</time>
      </trkpt>
      <trkpt lat="42.667790" lon="1.872451">
        <ele>1445.1</ele>
        <time>2018-10-21T16:27:05Z</time>
      </trkpt>
      <trkpt lat="42.667881" lon="1.872376">
        <ele>1443.2</ele>
        <time>2018-10-21T16:27:14Z</time>
      </trkpt>
      <trkpt lat="42.667936" lon="1.872279">
        <ele>1441.3</ele>
        <time>2018-10-21T16:27:23Z</time>
      </trkpt>
      <trkpt lat="42.667970" lon="1.872151">
        <ele>1439.2</ele>
        <time>2018-10-21T16:27:32Z</time>
      </trkpt>
      <trkpt lat="42.668036" lon="1.872073">
        <ele>1438.5</ele>
        <time>2018-10-21T16:27:41Z</time>
      </trkpt>
      <trkpt lat="42.668146" lon="1.872038">
        <ele>1438.5</ele>
        <time>2018-10-21T16:27:52Z</time>
      </trkpt>
      <trkpt lat="42.668220" lon="1.871972">
        <ele>1437.9</ele>
        <time>2018-10-21T16:28:17Z</time>
      </trkpt>
      <trkpt lat="42.668242" lon="1.871964">
        <ele>1447.2</ele>
        <time>2018-10-21T16:29:50Z</time>
      </trkpt>
    </trkseg>
  </trk>
</gpx>

